<?xml version="1.0" encoding="UTF-8"?>
<gpx xmlns="http://www.topografix.com/GPX/1/1" xmlns:gpsies="https://www.gpsies.com/GPX/1/0" creator="GPSies https://www.gpsies.com - benshemen2" version="1.1" xmlns:xsi="http://www.w3.org/2001/XMLSchema-instance" xsi:schemaLocation="http://www.topografix.com/GPX/1/1 http://www.topografix.com/GPX/1/1/gpx.xsd https://www.gpsies.com/GPX/1/0 https://www.gpsies.com/gpsies.xsd">
  <metadata>
    <name>benshemen2</name>
    <author>
      <name>igor968</name>
      <link href="https://www.gpsies.com/mapUser.do?username=igor968">
        <text>igor968 on GPSies.com</text>
        <type>GPSiesUserOnWeb</type>
      </link>
    </author>
    <link href="https://www.gpsies.com/map.do?fileId=hefvguiivxhxwigo">
      <text>benshemen2 on GPSies.com</text>
      <type>trackOnWeb</type>
    </link>
    <time>2018-08-08T19:39:28Z</time>
    <extensions>
      <gpsies:property>round trip</gpsies:property>
      <gpsies:trackLengthMeter>26463.03617267248</gpsies:trackLengthMeter>
      <gpsies:totalAscentMeter>411.0</gpsies:totalAscentMeter>
      <gpsies:totalDescentMeter>411.0</gpsies:totalDescentMeter>
      <gpsies:minHeightMeter>90.0</gpsies:minHeightMeter>
      <gpsies:maxHeightMeter>242.0</gpsies:maxHeightMeter>
    </extensions>
  </metadata>
  <trk>
    <name>benshemen2 on GPSies.com</name>
    <link href="https://www.gpsies.com/map.do?fileId=hefvguiivxhxwigo">
      <type>trackOnWeb</type>
    </link>
    <link href="https://www.gpsies.com/charts/he/map/hefvguiivxhxwigo_map.png">
      <type>elevationChartUrlMap</type>
    </link>
    <link href="https://www.gpsies.com/charts/he/mapThumb/hefvguiivxhxwigo_mapThumb.png">
      <type>elevationChartUrlMapThumb</type>
    </link>
    <link href="https://www.gpsies.com/charts/he/tab/hefvguiivxhxwigo_tab.png">
      <type>elevationChartUrlTab</type>
    </link>
    <trkseg>
      <trkpt lat="31.95064190" lon="34.95732660">
        <ele>172.00000</ele>
        <time>2010-01-01T00:00:00Z</time>
      </trkpt>
      <trkpt lat="31.95066000" lon="34.95713000">
        <ele>172.00000</ele>
        <time>2010-01-01T00:00:06Z</time>
      </trkpt>
      <trkpt lat="31.95086950" lon="34.95627520">
        <ele>169.00000</ele>
        <time>2010-01-01T00:00:36Z</time>
      </trkpt>
      <trkpt lat="31.95101520" lon="34.95558850">
        <ele>169.00000</ele>
        <time>2010-01-01T00:01:00Z</time>
      </trkpt>
      <trkpt lat="31.95104250" lon="34.95539000">
        <ele>169.00000</ele>
        <time>2010-01-01T00:01:07Z</time>
      </trkpt>
      <trkpt lat="31.95093780" lon="34.95540610">
        <ele>169.00000</ele>
        <time>2010-01-01T00:01:12Z</time>
      </trkpt>
      <trkpt lat="31.95073750" lon="34.95539540">
        <ele>169.00000</ele>
        <time>2010-01-01T00:01:20Z</time>
      </trkpt>
      <trkpt lat="31.95075000" lon="34.95467000">
        <ele>167.00000</ele>
        <time>2010-01-01T00:01:44Z</time>
      </trkpt>
      <trkpt lat="31.95082000" lon="34.95444000">
        <ele>166.00000</ele>
        <time>2010-01-01T00:01:53Z</time>
      </trkpt>
      <trkpt lat="31.95119720" lon="34.95408650">
        <ele>163.00000</ele>
        <time>2010-01-01T00:02:12Z</time>
      </trkpt>
      <trkpt lat="31.95155230" lon="34.95404360">
        <ele>163.00000</ele>
        <time>2010-01-01T00:02:26Z</time>
      </trkpt>
      <trkpt lat="31.95186180" lon="34.95416700">
        <ele>161.00000</ele>
        <time>2010-01-01T00:02:39Z</time>
      </trkpt>
      <trkpt lat="31.95248080" lon="34.95447270">
        <ele>159.00000</ele>
        <time>2010-01-01T00:03:06Z</time>
      </trkpt>
      <trkpt lat="31.95280850" lon="34.95466050">
        <ele>156.00000</ele>
        <time>2010-01-01T00:03:21Z</time>
      </trkpt>
      <trkpt lat="31.95315000" lon="34.95506000">
        <ele>156.00000</ele>
        <time>2010-01-01T00:03:40Z</time>
      </trkpt>
      <trkpt lat="31.95315000" lon="34.95505000">
        <ele>156.00000</ele>
        <time>2010-01-01T00:03:40Z</time>
      </trkpt>
      <trkpt lat="31.95325000" lon="34.95494000">
        <ele>155.00000</ele>
        <time>2010-01-01T00:03:46Z</time>
      </trkpt>
      <trkpt lat="31.95331000" lon="34.95485000">
        <ele>154.00000</ele>
        <time>2010-01-01T00:03:50Z</time>
      </trkpt>
      <trkpt lat="31.95339000" lon="34.95451000">
        <ele>154.00000</ele>
        <time>2010-01-01T00:04:02Z</time>
      </trkpt>
      <trkpt lat="31.95345000" lon="34.95437000">
        <ele>154.00000</ele>
        <time>2010-01-01T00:04:07Z</time>
      </trkpt>
      <trkpt lat="31.95355000" lon="34.95383000">
        <ele>154.00000</ele>
        <time>2010-01-01T00:04:26Z</time>
      </trkpt>
      <trkpt lat="31.95355000" lon="34.95343000">
        <ele>154.00000</ele>
        <time>2010-01-01T00:04:39Z</time>
      </trkpt>
      <trkpt lat="31.95357000" lon="34.95320000">
        <ele>152.00000</ele>
        <time>2010-01-01T00:04:47Z</time>
      </trkpt>
      <trkpt lat="31.95365000" lon="34.95274000">
        <ele>148.00000</ele>
        <time>2010-01-01T00:05:03Z</time>
      </trkpt>
      <trkpt lat="31.95382000" lon="34.95158000">
        <ele>141.00000</ele>
        <time>2010-01-01T00:05:43Z</time>
      </trkpt>
      <trkpt lat="31.95397000" lon="34.95119000">
        <ele>141.00000</ele>
        <time>2010-01-01T00:05:58Z</time>
      </trkpt>
      <trkpt lat="31.95408000" lon="34.95105000">
        <ele>139.00000</ele>
        <time>2010-01-01T00:06:04Z</time>
      </trkpt>
      <trkpt lat="31.95417000" lon="34.95099000">
        <ele>138.00000</ele>
        <time>2010-01-01T00:06:08Z</time>
      </trkpt>
      <trkpt lat="31.95420000" lon="34.95097000">
        <ele>138.00000</ele>
        <time>2010-01-01T00:06:10Z</time>
      </trkpt>
      <trkpt lat="31.95431000" lon="34.95095000">
        <ele>137.00000</ele>
        <time>2010-01-01T00:06:14Z</time>
      </trkpt>
      <trkpt lat="31.95449000" lon="34.95097000">
        <ele>136.00000</ele>
        <time>2010-01-01T00:06:21Z</time>
      </trkpt>
      <trkpt lat="31.95496000" lon="34.95107000">
        <ele>134.00000</ele>
        <time>2010-01-01T00:06:40Z</time>
      </trkpt>
      <trkpt lat="31.95521000" lon="34.95120000">
        <ele>134.00000</ele>
        <time>2010-01-01T00:06:51Z</time>
      </trkpt>
      <trkpt lat="31.95534000" lon="34.95132000">
        <ele>135.00000</ele>
        <time>2010-01-01T00:06:58Z</time>
      </trkpt>
      <trkpt lat="31.95546000" lon="34.95140000">
        <ele>135.00000</ele>
        <time>2010-01-01T00:07:03Z</time>
      </trkpt>
      <trkpt lat="31.95545000" lon="34.95140000">
        <ele>135.00000</ele>
        <time>2010-01-01T00:07:04Z</time>
      </trkpt>
      <trkpt lat="31.95561000" lon="34.95160000">
        <ele>136.00000</ele>
        <time>2010-01-01T00:07:13Z</time>
      </trkpt>
      <trkpt lat="31.95617000" lon="34.95177000">
        <ele>135.00000</ele>
        <time>2010-01-01T00:07:36Z</time>
      </trkpt>
      <trkpt lat="31.95616000" lon="34.95177000">
        <ele>135.00000</ele>
        <time>2010-01-01T00:07:37Z</time>
      </trkpt>
      <trkpt lat="31.95686000" lon="34.95246000">
        <ele>136.00000</ele>
        <time>2010-01-01T00:08:13Z</time>
      </trkpt>
      <trkpt lat="31.95704000" lon="34.95261000">
        <ele>136.00000</ele>
        <time>2010-01-01T00:08:22Z</time>
      </trkpt>
      <trkpt lat="31.95727000" lon="34.95268000">
        <ele>136.00000</ele>
        <time>2010-01-01T00:08:32Z</time>
      </trkpt>
      <trkpt lat="31.95743000" lon="34.95267000">
        <ele>136.00000</ele>
        <time>2010-01-01T00:08:38Z</time>
      </trkpt>
      <trkpt lat="31.95776000" lon="34.95263000">
        <ele>135.00000</ele>
        <time>2010-01-01T00:08:51Z</time>
      </trkpt>
      <trkpt lat="31.95798000" lon="34.95266000">
        <ele>135.00000</ele>
        <time>2010-01-01T00:09:00Z</time>
      </trkpt>
      <trkpt lat="31.95811000" lon="34.95273000">
        <ele>135.00000</ele>
        <time>2010-01-01T00:09:06Z</time>
      </trkpt>
      <trkpt lat="31.95811000" lon="34.95275000">
        <ele>135.00000</ele>
        <time>2010-01-01T00:09:07Z</time>
      </trkpt>
      <trkpt lat="31.95811000" lon="34.95274000">
        <ele>135.00000</ele>
        <time>2010-01-01T00:09:07Z</time>
      </trkpt>
      <trkpt lat="31.95818000" lon="34.95319000">
        <ele>132.00000</ele>
        <time>2010-01-01T00:09:22Z</time>
      </trkpt>
      <trkpt lat="31.95826000" lon="34.95340000">
        <ele>130.00000</ele>
        <time>2010-01-01T00:09:30Z</time>
      </trkpt>
      <trkpt lat="31.95830000" lon="34.95345000">
        <ele>130.00000</ele>
        <time>2010-01-01T00:09:33Z</time>
      </trkpt>
      <trkpt lat="31.95851000" lon="34.95361000">
        <ele>127.00000</ele>
        <time>2010-01-01T00:09:43Z</time>
      </trkpt>
      <trkpt lat="31.95888000" lon="34.95373000">
        <ele>127.00000</ele>
        <time>2010-01-01T00:09:58Z</time>
      </trkpt>
      <trkpt lat="31.95902580" lon="34.95377540">
        <ele>127.00000</ele>
        <time>2010-01-01T00:10:04Z</time>
      </trkpt>
      <trkpt lat="31.95909410" lon="34.95387190">
        <ele>127.00000</ele>
        <time>2010-01-01T00:10:08Z</time>
      </trkpt>
      <trkpt lat="31.95923060" lon="34.95395240">
        <ele>127.00000</ele>
        <time>2010-01-01T00:10:14Z</time>
      </trkpt>
      <trkpt lat="31.95950830" lon="34.95390410">
        <ele>125.00000</ele>
        <time>2010-01-01T00:10:26Z</time>
      </trkpt>
      <trkpt lat="31.95971310" lon="34.95387190">
        <ele>124.00000</ele>
        <time>2010-01-01T00:10:34Z</time>
      </trkpt>
      <trkpt lat="31.95990420" lon="34.95385580">
        <ele>123.00000</ele>
        <time>2010-01-01T00:10:42Z</time>
      </trkpt>
      <trkpt lat="31.96026830" lon="34.95387190">
        <ele>122.00000</ele>
        <time>2010-01-01T00:10:56Z</time>
      </trkpt>
      <trkpt lat="31.96043670" lon="34.95390950">
        <ele>123.00000</ele>
        <time>2010-01-01T00:11:03Z</time>
      </trkpt>
      <trkpt lat="31.96078720" lon="34.95393630">
        <ele>124.00000</ele>
        <time>2010-01-01T00:11:17Z</time>
      </trkpt>
      <trkpt lat="31.96124230" lon="34.95381830">
        <ele>125.00000</ele>
        <time>2010-01-01T00:11:36Z</time>
      </trkpt>
      <trkpt lat="31.96148350" lon="34.95384510">
        <ele>126.00000</ele>
        <time>2010-01-01T00:11:45Z</time>
      </trkpt>
      <trkpt lat="31.96179750" lon="34.95395770">
        <ele>130.00000</ele>
        <time>2010-01-01T00:11:59Z</time>
      </trkpt>
      <trkpt lat="31.96198870" lon="34.95403280">
        <ele>131.00000</ele>
        <time>2010-01-01T00:12:07Z</time>
      </trkpt>
      <trkpt lat="31.96215250" lon="34.95416700">
        <ele>132.00000</ele>
        <time>2010-01-01T00:12:15Z</time>
      </trkpt>
      <trkpt lat="31.96208880" lon="34.95441370">
        <ele>133.00000</ele>
        <time>2010-01-01T00:12:23Z</time>
      </trkpt>
      <trkpt lat="31.96208000" lon="34.95441000">
        <ele>133.00000</ele>
        <time>2010-01-01T00:12:24Z</time>
      </trkpt>
      <trkpt lat="31.96204000" lon="34.95452000">
        <ele>133.00000</ele>
        <time>2010-01-01T00:12:28Z</time>
      </trkpt>
      <trkpt lat="31.96198000" lon="34.95461000">
        <ele>134.00000</ele>
        <time>2010-01-01T00:12:32Z</time>
      </trkpt>
      <trkpt lat="31.96190000" lon="34.95468000">
        <ele>134.00000</ele>
        <time>2010-01-01T00:12:36Z</time>
      </trkpt>
      <trkpt lat="31.96165000" lon="34.95478000">
        <ele>134.00000</ele>
        <time>2010-01-01T00:12:46Z</time>
      </trkpt>
      <trkpt lat="31.96138000" lon="34.95498000">
        <ele>134.00000</ele>
        <time>2010-01-01T00:12:59Z</time>
      </trkpt>
      <trkpt lat="31.96128000" lon="34.95502000">
        <ele>135.00000</ele>
        <time>2010-01-01T00:13:03Z</time>
      </trkpt>
      <trkpt lat="31.96113000" lon="34.95505000">
        <ele>135.00000</ele>
        <time>2010-01-01T00:13:09Z</time>
      </trkpt>
      <trkpt lat="31.96089000" lon="34.95507000">
        <ele>134.00000</ele>
        <time>2010-01-01T00:13:19Z</time>
      </trkpt>
      <trkpt lat="31.96071000" lon="34.95515000">
        <ele>133.00000</ele>
        <time>2010-01-01T00:13:27Z</time>
      </trkpt>
      <trkpt lat="31.96059000" lon="34.95522000">
        <ele>132.00000</ele>
        <time>2010-01-01T00:13:32Z</time>
      </trkpt>
      <trkpt lat="31.96055000" lon="34.95527000">
        <ele>132.00000</ele>
        <time>2010-01-01T00:13:34Z</time>
      </trkpt>
      <trkpt lat="31.96038000" lon="34.95536000">
        <ele>134.00000</ele>
        <time>2010-01-01T00:13:42Z</time>
      </trkpt>
      <trkpt lat="31.96030000" lon="34.95546000">
        <ele>135.00000</ele>
        <time>2010-01-01T00:13:46Z</time>
      </trkpt>
      <trkpt lat="31.96024000" lon="34.95549000">
        <ele>135.00000</ele>
        <time>2010-01-01T00:13:49Z</time>
      </trkpt>
      <trkpt lat="31.96009000" lon="34.95566000">
        <ele>137.00000</ele>
        <time>2010-01-01T00:13:57Z</time>
      </trkpt>
      <trkpt lat="31.95978000" lon="34.95574000">
        <ele>139.00000</ele>
        <time>2010-01-01T00:14:10Z</time>
      </trkpt>
      <trkpt lat="31.95966000" lon="34.95580000">
        <ele>140.00000</ele>
        <time>2010-01-01T00:14:15Z</time>
      </trkpt>
      <trkpt lat="31.95932000" lon="34.95602000">
        <ele>140.00000</ele>
        <time>2010-01-01T00:14:31Z</time>
      </trkpt>
      <trkpt lat="31.95921000" lon="34.95607000">
        <ele>140.00000</ele>
        <time>2010-01-01T00:14:36Z</time>
      </trkpt>
      <trkpt lat="31.95893000" lon="34.95641000">
        <ele>140.00000</ele>
        <time>2010-01-01T00:14:52Z</time>
      </trkpt>
      <trkpt lat="31.95885000" lon="34.95648000">
        <ele>140.00000</ele>
        <time>2010-01-01T00:14:56Z</time>
      </trkpt>
      <trkpt lat="31.95885000" lon="34.95647000">
        <ele>141.00000</ele>
        <time>2010-01-01T00:14:56Z</time>
      </trkpt>
      <trkpt lat="31.95880000" lon="34.95636000">
        <ele>141.00000</ele>
        <time>2010-01-01T00:15:00Z</time>
      </trkpt>
      <trkpt lat="31.95871000" lon="34.95620000">
        <ele>142.00000</ele>
        <time>2010-01-01T00:15:07Z</time>
      </trkpt>
      <trkpt lat="31.95849000" lon="34.95632000">
        <ele>144.00000</ele>
        <time>2010-01-01T00:15:16Z</time>
      </trkpt>
      <trkpt lat="31.95848000" lon="34.95631000">
        <ele>144.00000</ele>
        <time>2010-01-01T00:15:17Z</time>
      </trkpt>
      <trkpt lat="31.95816000" lon="34.95631000">
        <ele>146.00000</ele>
        <time>2010-01-01T00:15:30Z</time>
      </trkpt>
      <trkpt lat="31.95801000" lon="34.95635000">
        <ele>146.00000</ele>
        <time>2010-01-01T00:15:36Z</time>
      </trkpt>
      <trkpt lat="31.95781000" lon="34.95646000">
        <ele>148.00000</ele>
        <time>2010-01-01T00:15:45Z</time>
      </trkpt>
      <trkpt lat="31.95738000" lon="34.95665000">
        <ele>152.00000</ele>
        <time>2010-01-01T00:16:03Z</time>
      </trkpt>
      <trkpt lat="31.95724000" lon="34.95677000">
        <ele>153.00000</ele>
        <time>2010-01-01T00:16:10Z</time>
      </trkpt>
      <trkpt lat="31.95705000" lon="34.95710000">
        <ele>156.00000</ele>
        <time>2010-01-01T00:16:24Z</time>
      </trkpt>
      <trkpt lat="31.95698000" lon="34.95716000">
        <ele>157.00000</ele>
        <time>2010-01-01T00:16:27Z</time>
      </trkpt>
      <trkpt lat="31.95681000" lon="34.95723000">
        <ele>158.00000</ele>
        <time>2010-01-01T00:16:34Z</time>
      </trkpt>
      <trkpt lat="31.95670000" lon="34.95731000">
        <ele>158.00000</ele>
        <time>2010-01-01T00:16:39Z</time>
      </trkpt>
      <trkpt lat="31.95659000" lon="34.95747000">
        <ele>159.00000</ele>
        <time>2010-01-01T00:16:46Z</time>
      </trkpt>
      <trkpt lat="31.95640000" lon="34.95765000">
        <ele>159.00000</ele>
        <time>2010-01-01T00:16:56Z</time>
      </trkpt>
      <trkpt lat="31.95595000" lon="34.95791000">
        <ele>161.00000</ele>
        <time>2010-01-01T00:17:16Z</time>
      </trkpt>
      <trkpt lat="31.95584000" lon="34.95807000">
        <ele>160.00000</ele>
        <time>2010-01-01T00:17:23Z</time>
      </trkpt>
      <trkpt lat="31.95570000" lon="34.95822000">
        <ele>160.00000</ele>
        <time>2010-01-01T00:17:31Z</time>
      </trkpt>
      <trkpt lat="31.95544000" lon="34.95838000">
        <ele>163.00000</ele>
        <time>2010-01-01T00:17:43Z</time>
      </trkpt>
      <trkpt lat="31.95539000" lon="34.95844000">
        <ele>164.00000</ele>
        <time>2010-01-01T00:17:45Z</time>
      </trkpt>
      <trkpt lat="31.95534000" lon="34.95856000">
        <ele>165.00000</ele>
        <time>2010-01-01T00:17:50Z</time>
      </trkpt>
      <trkpt lat="31.95526000" lon="34.95865000">
        <ele>165.00000</ele>
        <time>2010-01-01T00:17:54Z</time>
      </trkpt>
      <trkpt lat="31.95507000" lon="34.95878000">
        <ele>166.00000</ele>
        <time>2010-01-01T00:18:03Z</time>
      </trkpt>
      <trkpt lat="31.95494000" lon="34.95883000">
        <ele>167.00000</ele>
        <time>2010-01-01T00:18:09Z</time>
      </trkpt>
      <trkpt lat="31.95480000" lon="34.95885000">
        <ele>167.00000</ele>
        <time>2010-01-01T00:18:14Z</time>
      </trkpt>
      <trkpt lat="31.95468000" lon="34.95889000">
        <ele>168.00000</ele>
        <time>2010-01-01T00:18:19Z</time>
      </trkpt>
      <trkpt lat="31.95449000" lon="34.95901000">
        <ele>168.00000</ele>
        <time>2010-01-01T00:18:28Z</time>
      </trkpt>
      <trkpt lat="31.95430000" lon="34.95910000">
        <ele>169.00000</ele>
        <time>2010-01-01T00:18:36Z</time>
      </trkpt>
      <trkpt lat="31.95413000" lon="34.95923000">
        <ele>169.00000</ele>
        <time>2010-01-01T00:18:44Z</time>
      </trkpt>
      <trkpt lat="31.95382000" lon="34.95943000">
        <ele>170.00000</ele>
        <time>2010-01-01T00:18:58Z</time>
      </trkpt>
      <trkpt lat="31.95382000" lon="34.95942000">
        <ele>170.00000</ele>
        <time>2010-01-01T00:18:59Z</time>
      </trkpt>
      <trkpt lat="31.95383000" lon="34.95943000">
        <ele>170.00000</ele>
        <time>2010-01-01T00:18:59Z</time>
      </trkpt>
      <trkpt lat="31.95361000" lon="34.95963000">
        <ele>171.00000</ele>
        <time>2010-01-01T00:19:10Z</time>
      </trkpt>
      <trkpt lat="31.95349000" lon="34.95983000">
        <ele>170.00000</ele>
        <time>2010-01-01T00:19:19Z</time>
      </trkpt>
      <trkpt lat="31.95328000" lon="34.96001000">
        <ele>170.00000</ele>
        <time>2010-01-01T00:19:29Z</time>
      </trkpt>
      <trkpt lat="31.95313000" lon="34.96008000">
        <ele>170.00000</ele>
        <time>2010-01-01T00:19:36Z</time>
      </trkpt>
      <trkpt lat="31.95269000" lon="34.96019000">
        <ele>172.00000</ele>
        <time>2010-01-01T00:19:54Z</time>
      </trkpt>
      <trkpt lat="31.95243000" lon="34.96023000">
        <ele>171.00000</ele>
        <time>2010-01-01T00:20:04Z</time>
      </trkpt>
      <trkpt lat="31.95243000" lon="34.96022000">
        <ele>171.00000</ele>
        <time>2010-01-01T00:20:04Z</time>
      </trkpt>
      <trkpt lat="31.95244000" lon="34.96023000">
        <ele>171.00000</ele>
        <time>2010-01-01T00:20:05Z</time>
      </trkpt>
      <trkpt lat="31.95212000" lon="34.96049000">
        <ele>164.00000</ele>
        <time>2010-01-01T00:20:21Z</time>
      </trkpt>
      <trkpt lat="31.95170000" lon="34.96076000">
        <ele>161.00000</ele>
        <time>2010-01-01T00:20:40Z</time>
      </trkpt>
      <trkpt lat="31.95114000" lon="34.96125000">
        <ele>161.00000</ele>
        <time>2010-01-01T00:21:08Z</time>
      </trkpt>
      <trkpt lat="31.95112000" lon="34.96127000">
        <ele>161.00000</ele>
        <time>2010-01-01T00:21:09Z</time>
      </trkpt>
      <trkpt lat="31.95131000" lon="34.96161000">
        <ele>155.00000</ele>
        <time>2010-01-01T00:21:22Z</time>
      </trkpt>
      <trkpt lat="31.95126000" lon="34.96181000">
        <ele>153.00000</ele>
        <time>2010-01-01T00:21:30Z</time>
      </trkpt>
      <trkpt lat="31.95115000" lon="34.96218000">
        <ele>148.00000</ele>
        <time>2010-01-01T00:21:43Z</time>
      </trkpt>
      <trkpt lat="31.95089000" lon="34.96256000">
        <ele>144.00000</ele>
        <time>2010-01-01T00:21:59Z</time>
      </trkpt>
      <trkpt lat="31.95092000" lon="34.96272000">
        <ele>141.00000</ele>
        <time>2010-01-01T00:22:05Z</time>
      </trkpt>
      <trkpt lat="31.95092000" lon="34.96271000">
        <ele>141.00000</ele>
        <time>2010-01-01T00:22:05Z</time>
      </trkpt>
      <trkpt lat="31.95105000" lon="34.96285000">
        <ele>138.00000</ele>
        <time>2010-01-01T00:22:12Z</time>
      </trkpt>
      <trkpt lat="31.95104000" lon="34.96285000">
        <ele>138.00000</ele>
        <time>2010-01-01T00:22:13Z</time>
      </trkpt>
      <trkpt lat="31.95120000" lon="34.96293000">
        <ele>135.00000</ele>
        <time>2010-01-01T00:22:20Z</time>
      </trkpt>
      <trkpt lat="31.95125000" lon="34.96298000">
        <ele>134.00000</ele>
        <time>2010-01-01T00:22:22Z</time>
      </trkpt>
      <trkpt lat="31.95126000" lon="34.96306000">
        <ele>133.00000</ele>
        <time>2010-01-01T00:22:25Z</time>
      </trkpt>
      <trkpt lat="31.95124000" lon="34.96311000">
        <ele>133.00000</ele>
        <time>2010-01-01T00:22:27Z</time>
      </trkpt>
      <trkpt lat="31.95119000" lon="34.96317000">
        <ele>133.00000</ele>
        <time>2010-01-01T00:22:30Z</time>
      </trkpt>
      <trkpt lat="31.95102000" lon="34.96332000">
        <ele>135.00000</ele>
        <time>2010-01-01T00:22:38Z</time>
      </trkpt>
      <trkpt lat="31.95090000" lon="34.96349000">
        <ele>134.00000</ele>
        <time>2010-01-01T00:22:46Z</time>
      </trkpt>
      <trkpt lat="31.95092000" lon="34.96356000">
        <ele>133.00000</ele>
        <time>2010-01-01T00:22:48Z</time>
      </trkpt>
      <trkpt lat="31.95091000" lon="34.96356000">
        <ele>133.00000</ele>
        <time>2010-01-01T00:22:49Z</time>
      </trkpt>
      <trkpt lat="31.95040000" lon="34.96389000">
        <ele>137.00000</ele>
        <time>2010-01-01T00:23:12Z</time>
      </trkpt>
      <trkpt lat="31.95013000" lon="34.96403000">
        <ele>139.00000</ele>
        <time>2010-01-01T00:23:24Z</time>
      </trkpt>
      <trkpt lat="31.94991000" lon="34.96429000">
        <ele>140.00000</ele>
        <time>2010-01-01T00:23:36Z</time>
      </trkpt>
      <trkpt lat="31.94975000" lon="34.96458000">
        <ele>141.00000</ele>
        <time>2010-01-01T00:23:48Z</time>
      </trkpt>
      <trkpt lat="31.94923000" lon="34.96498000">
        <ele>147.00000</ele>
        <time>2010-01-01T00:24:13Z</time>
      </trkpt>
      <trkpt lat="31.94908000" lon="34.96512000">
        <ele>149.00000</ele>
        <time>2010-01-01T00:24:21Z</time>
      </trkpt>
      <trkpt lat="31.94908000" lon="34.96511000">
        <ele>149.00000</ele>
        <time>2010-01-01T00:24:21Z</time>
      </trkpt>
      <trkpt lat="31.94919450" lon="34.96546440">
        <ele>153.00000</ele>
        <time>2010-01-01T00:24:34Z</time>
      </trkpt>
      <trkpt lat="31.94906250" lon="34.96548050">
        <ele>154.00000</ele>
        <time>2010-01-01T00:24:39Z</time>
      </trkpt>
      <trkpt lat="31.94891680" lon="34.96544300">
        <ele>155.00000</ele>
        <time>2010-01-01T00:24:45Z</time>
      </trkpt>
      <trkpt lat="31.94884850" lon="34.96535710">
        <ele>154.00000</ele>
        <time>2010-01-01T00:24:49Z</time>
      </trkpt>
      <trkpt lat="31.94866640" lon="34.96529280">
        <ele>156.00000</ele>
        <time>2010-01-01T00:24:57Z</time>
      </trkpt>
      <trkpt lat="31.94854810" lon="34.96532490">
        <ele>157.00000</ele>
        <time>2010-01-01T00:25:02Z</time>
      </trkpt>
      <trkpt lat="31.94835240" lon="34.96547520">
        <ele>159.00000</ele>
        <time>2010-01-01T00:25:11Z</time>
      </trkpt>
      <trkpt lat="31.94797910" lon="34.96534640">
        <ele>158.00000</ele>
        <time>2010-01-01T00:25:27Z</time>
      </trkpt>
      <trkpt lat="31.94734190" lon="34.96537860">
        <ele>164.00000</ele>
        <time>2010-01-01T00:25:52Z</time>
      </trkpt>
      <trkpt lat="31.94715070" lon="34.96551270">
        <ele>164.00000</ele>
        <time>2010-01-01T00:26:01Z</time>
      </trkpt>
      <trkpt lat="31.94705510" lon="34.96563070">
        <ele>164.00000</ele>
        <time>2010-01-01T00:26:06Z</time>
      </trkpt>
      <trkpt lat="31.94697770" lon="34.96586140">
        <ele>166.00000</ele>
        <time>2010-01-01T00:26:15Z</time>
      </trkpt>
      <trkpt lat="31.94683660" lon="34.96604910">
        <ele>167.00000</ele>
        <time>2010-01-01T00:26:23Z</time>
      </trkpt>
      <trkpt lat="31.94677740" lon="34.96618860">
        <ele>168.00000</ele>
        <time>2010-01-01T00:26:29Z</time>
      </trkpt>
      <trkpt lat="31.94668640" lon="34.96656950">
        <ele>171.00000</ele>
        <time>2010-01-01T00:26:42Z</time>
      </trkpt>
      <trkpt lat="31.94659990" lon="34.96695570">
        <ele>173.00000</ele>
        <time>2010-01-01T00:26:56Z</time>
      </trkpt>
      <trkpt lat="31.94647700" lon="34.96757260">
        <ele>176.00000</ele>
        <time>2010-01-01T00:27:17Z</time>
      </trkpt>
      <trkpt lat="31.94640420" lon="34.96811980">
        <ele>180.00000</ele>
        <time>2010-01-01T00:27:36Z</time>
      </trkpt>
      <trkpt lat="31.94640420" lon="34.96836660">
        <ele>182.00000</ele>
        <time>2010-01-01T00:27:44Z</time>
      </trkpt>
      <trkpt lat="31.94650890" lon="34.96887080">
        <ele>184.00000</ele>
        <time>2010-01-01T00:28:02Z</time>
      </trkpt>
      <trkpt lat="31.94652250" lon="34.96922490">
        <ele>186.00000</ele>
        <time>2010-01-01T00:28:14Z</time>
      </trkpt>
      <trkpt lat="31.94649980" lon="34.96975600">
        <ele>187.00000</ele>
        <time>2010-01-01T00:28:32Z</time>
      </trkpt>
      <trkpt lat="31.94648150" lon="34.97027630">
        <ele>186.00000</ele>
        <time>2010-01-01T00:28:50Z</time>
      </trkpt>
      <trkpt lat="31.94641780" lon="34.97058210">
        <ele>185.00000</ele>
        <time>2010-01-01T00:29:01Z</time>
      </trkpt>
      <trkpt lat="31.94636320" lon="34.97100050">
        <ele>185.00000</ele>
        <time>2010-01-01T00:29:15Z</time>
      </trkpt>
      <trkpt lat="31.94623570" lon="34.97156380">
        <ele>188.00000</ele>
        <time>2010-01-01T00:29:35Z</time>
      </trkpt>
      <trkpt lat="31.94608550" lon="34.97181590">
        <ele>190.00000</ele>
        <time>2010-01-01T00:29:45Z</time>
      </trkpt>
      <trkpt lat="31.94591710" lon="34.97241130">
        <ele>192.00000</ele>
        <time>2010-01-01T00:30:07Z</time>
      </trkpt>
      <trkpt lat="31.94581700" lon="34.97286730">
        <ele>194.00000</ele>
        <time>2010-01-01T00:30:23Z</time>
      </trkpt>
      <trkpt lat="31.94560300" lon="34.97372560">
        <ele>196.00000</ele>
        <time>2010-01-01T00:30:53Z</time>
      </trkpt>
      <trkpt lat="31.94531620" lon="34.97456250">
        <ele>199.00000</ele>
        <time>2010-01-01T00:31:24Z</time>
      </trkpt>
      <trkpt lat="31.94518880" lon="34.97498090">
        <ele>203.00000</ele>
        <time>2010-01-01T00:31:39Z</time>
      </trkpt>
      <trkpt lat="31.94498390" lon="34.97571050">
        <ele>202.00000</ele>
        <time>2010-01-01T00:32:05Z</time>
      </trkpt>
      <trkpt lat="31.94484280" lon="34.97613960">
        <ele>202.00000</ele>
        <time>2010-01-01T00:32:20Z</time>
      </trkpt>
      <trkpt lat="31.94475180" lon="34.97641320">
        <ele>202.00000</ele>
        <time>2010-01-01T00:32:30Z</time>
      </trkpt>
      <trkpt lat="31.94462430" lon="34.97688530">
        <ele>198.00000</ele>
        <time>2010-01-01T00:32:47Z</time>
      </trkpt>
      <trkpt lat="31.94448320" lon="34.97726080">
        <ele>197.00000</ele>
        <time>2010-01-01T00:33:01Z</time>
      </trkpt>
      <trkpt lat="31.94439220" lon="34.97742710">
        <ele>196.00000</ele>
        <time>2010-01-01T00:33:08Z</time>
      </trkpt>
      <trkpt lat="31.94399620" lon="34.97784010">
        <ele>190.00000</ele>
        <time>2010-01-01T00:33:29Z</time>
      </trkpt>
      <trkpt lat="31.94380000" lon="34.97987000">
        <ele>181.00000</ele>
        <time>2010-01-01T00:34:38Z</time>
      </trkpt>
      <trkpt lat="31.94368000" lon="34.98145000">
        <ele>176.00000</ele>
        <time>2010-01-01T00:35:32Z</time>
      </trkpt>
      <trkpt lat="31.94364000" lon="34.98178000">
        <ele>177.00000</ele>
        <time>2010-01-01T00:35:44Z</time>
      </trkpt>
      <trkpt lat="31.94354000" lon="34.98232000">
        <ele>176.00000</ele>
        <time>2010-01-01T00:36:02Z</time>
      </trkpt>
      <trkpt lat="31.94311000" lon="34.98371000">
        <ele>171.00000</ele>
        <time>2010-01-01T00:36:53Z</time>
      </trkpt>
      <trkpt lat="31.94284000" lon="34.98465000">
        <ele>179.00000</ele>
        <time>2010-01-01T00:37:26Z</time>
      </trkpt>
      <trkpt lat="31.94256000" lon="34.98554000">
        <ele>187.00000</ele>
        <time>2010-01-01T00:37:59Z</time>
      </trkpt>
      <trkpt lat="31.94239000" lon="34.98592000">
        <ele>190.00000</ele>
        <time>2010-01-01T00:38:13Z</time>
      </trkpt>
      <trkpt lat="31.94225000" lon="34.98616000">
        <ele>191.00000</ele>
        <time>2010-01-01T00:38:23Z</time>
      </trkpt>
      <trkpt lat="31.94207000" lon="34.98636000">
        <ele>192.00000</ele>
        <time>2010-01-01T00:38:33Z</time>
      </trkpt>
      <trkpt lat="31.94196000" lon="34.98647000">
        <ele>192.00000</ele>
        <time>2010-01-01T00:38:39Z</time>
      </trkpt>
      <trkpt lat="31.94169000" lon="34.98664000">
        <ele>191.00000</ele>
        <time>2010-01-01T00:38:51Z</time>
      </trkpt>
      <trkpt lat="31.94065000" lon="34.98724000">
        <ele>190.00000</ele>
        <time>2010-01-01T00:39:37Z</time>
      </trkpt>
      <trkpt lat="31.94037000" lon="34.98743000">
        <ele>190.00000</ele>
        <time>2010-01-01T00:39:50Z</time>
      </trkpt>
      <trkpt lat="31.94026000" lon="34.98753000">
        <ele>189.00000</ele>
        <time>2010-01-01T00:39:56Z</time>
      </trkpt>
      <trkpt lat="31.94009000" lon="34.98771000">
        <ele>190.00000</ele>
        <time>2010-01-01T00:40:05Z</time>
      </trkpt>
      <trkpt lat="31.93992000" lon="34.98798000">
        <ele>190.00000</ele>
        <time>2010-01-01T00:40:16Z</time>
      </trkpt>
      <trkpt lat="31.93983000" lon="34.98820000">
        <ele>189.00000</ele>
        <time>2010-01-01T00:40:25Z</time>
      </trkpt>
      <trkpt lat="31.93994930" lon="34.98830610">
        <ele>187.00000</ele>
        <time>2010-01-01T00:40:31Z</time>
      </trkpt>
      <trkpt lat="31.94000390" lon="34.98839730">
        <ele>186.00000</ele>
        <time>2010-01-01T00:40:35Z</time>
      </trkpt>
      <trkpt lat="31.94005400" lon="34.98852610">
        <ele>184.00000</ele>
        <time>2010-01-01T00:40:39Z</time>
      </trkpt>
      <trkpt lat="31.94008130" lon="34.98861190">
        <ele>183.00000</ele>
        <time>2010-01-01T00:40:42Z</time>
      </trkpt>
      <trkpt lat="31.94013590" lon="34.98865480">
        <ele>183.00000</ele>
        <time>2010-01-01T00:40:45Z</time>
      </trkpt>
      <trkpt lat="31.94012230" lon="34.98881040">
        <ele>182.00000</ele>
        <time>2010-01-01T00:40:50Z</time>
      </trkpt>
      <trkpt lat="31.94016780" lon="34.98895520">
        <ele>182.00000</ele>
        <time>2010-01-01T00:40:56Z</time>
      </trkpt>
      <trkpt lat="31.94025430" lon="34.98911080">
        <ele>182.00000</ele>
        <time>2010-01-01T00:41:02Z</time>
      </trkpt>
      <trkpt lat="31.94031350" lon="34.98915910">
        <ele>182.00000</ele>
        <time>2010-01-01T00:41:05Z</time>
      </trkpt>
      <trkpt lat="31.94048190" lon="34.98924490">
        <ele>182.00000</ele>
        <time>2010-01-01T00:41:12Z</time>
      </trkpt>
      <trkpt lat="31.94060030" lon="34.98935220">
        <ele>182.00000</ele>
        <time>2010-01-01T00:41:18Z</time>
      </trkpt>
      <trkpt lat="31.94073230" lon="34.98953990">
        <ele>182.00000</ele>
        <time>2010-01-01T00:41:26Z</time>
      </trkpt>
      <trkpt lat="31.94086880" lon="34.98978670">
        <ele>182.00000</ele>
        <time>2010-01-01T00:41:36Z</time>
      </trkpt>
      <trkpt lat="31.94100540" lon="34.98999050">
        <ele>185.00000</ele>
        <time>2010-01-01T00:41:45Z</time>
      </trkpt>
      <trkpt lat="31.94139230" lon="34.99040900">
        <ele>186.00000</ele>
        <time>2010-01-01T00:42:06Z</time>
      </trkpt>
      <trkpt lat="31.94156080" lon="34.99066110">
        <ele>187.00000</ele>
        <time>2010-01-01T00:42:17Z</time>
      </trkpt>
      <trkpt lat="31.94168370" lon="34.99085960">
        <ele>188.00000</ele>
        <time>2010-01-01T00:42:26Z</time>
      </trkpt>
      <trkpt lat="31.94174740" lon="34.99095080">
        <ele>188.00000</ele>
        <time>2010-01-01T00:42:30Z</time>
      </trkpt>
      <trkpt lat="31.94181570" lon="34.99099370">
        <ele>188.00000</ele>
        <time>2010-01-01T00:42:33Z</time>
      </trkpt>
      <trkpt lat="31.94199320" lon="34.99103120">
        <ele>187.00000</ele>
        <time>2010-01-01T00:42:40Z</time>
      </trkpt>
      <trkpt lat="31.94226640" lon="34.99099910">
        <ele>186.00000</ele>
        <time>2010-01-01T00:42:51Z</time>
      </trkpt>
      <trkpt lat="31.94273980" lon="34.99100980">
        <ele>186.00000</ele>
        <time>2010-01-01T00:43:10Z</time>
      </trkpt>
      <trkpt lat="31.94310390" lon="34.99111710">
        <ele>184.00000</ele>
        <time>2010-01-01T00:43:25Z</time>
      </trkpt>
      <trkpt lat="31.94348630" lon="34.99120290">
        <ele>182.00000</ele>
        <time>2010-01-01T00:43:40Z</time>
      </trkpt>
      <trkpt lat="31.94383680" lon="34.99125120">
        <ele>179.00000</ele>
        <time>2010-01-01T00:43:55Z</time>
      </trkpt>
      <trkpt lat="31.94401890" lon="34.99131560">
        <ele>178.00000</ele>
        <time>2010-01-01T00:44:02Z</time>
      </trkpt>
      <trkpt lat="31.94410090" lon="34.99137460">
        <ele>178.00000</ele>
        <time>2010-01-01T00:44:06Z</time>
      </trkpt>
      <trkpt lat="31.94421920" lon="34.99150870">
        <ele>179.00000</ele>
        <time>2010-01-01T00:44:13Z</time>
      </trkpt>
      <trkpt lat="31.94433300" lon="34.99160520">
        <ele>180.00000</ele>
        <time>2010-01-01T00:44:18Z</time>
      </trkpt>
      <trkpt lat="31.94449230" lon="34.99169110">
        <ele>181.00000</ele>
        <time>2010-01-01T00:44:25Z</time>
      </trkpt>
      <trkpt lat="31.94465160" lon="34.99177690">
        <ele>181.00000</ele>
        <time>2010-01-01T00:44:32Z</time>
      </trkpt>
      <trkpt lat="31.94474270" lon="34.99188950">
        <ele>181.00000</ele>
        <time>2010-01-01T00:44:38Z</time>
      </trkpt>
      <trkpt lat="31.94479730" lon="34.99206120">
        <ele>183.00000</ele>
        <time>2010-01-01T00:44:44Z</time>
      </trkpt>
      <trkpt lat="31.94484740" lon="34.99219530">
        <ele>185.00000</ele>
        <time>2010-01-01T00:44:49Z</time>
      </trkpt>
      <trkpt lat="31.94495210" lon="34.99235630">
        <ele>187.00000</ele>
        <time>2010-01-01T00:44:56Z</time>
      </trkpt>
      <trkpt lat="31.94507500" lon="34.99245280">
        <ele>188.00000</ele>
        <time>2010-01-01T00:45:02Z</time>
      </trkpt>
      <trkpt lat="31.94507000" lon="34.99246000">
        <ele>188.00000</ele>
        <time>2010-01-01T00:45:02Z</time>
      </trkpt>
      <trkpt lat="31.94510000" lon="34.99244000">
        <ele>188.00000</ele>
        <time>2010-01-01T00:45:03Z</time>
      </trkpt>
      <trkpt lat="31.94507000" lon="34.99246000">
        <ele>188.00000</ele>
        <time>2010-01-01T00:45:05Z</time>
      </trkpt>
      <trkpt lat="31.94510000" lon="34.99244000">
        <ele>188.00000</ele>
        <time>2010-01-01T00:45:06Z</time>
      </trkpt>
      <trkpt lat="31.94507000" lon="34.99246000">
        <ele>188.00000</ele>
        <time>2010-01-01T00:45:07Z</time>
      </trkpt>
      <trkpt lat="31.94510000" lon="34.99244000">
        <ele>188.00000</ele>
        <time>2010-01-01T00:45:09Z</time>
      </trkpt>
      <trkpt lat="31.94522520" lon="34.99239380">
        <ele>188.00000</ele>
        <time>2010-01-01T00:45:14Z</time>
      </trkpt>
      <trkpt lat="31.94545280" lon="34.99222750">
        <ele>189.00000</ele>
        <time>2010-01-01T00:45:25Z</time>
      </trkpt>
      <trkpt lat="31.94570320" lon="34.99211490">
        <ele>190.00000</ele>
        <time>2010-01-01T00:45:35Z</time>
      </trkpt>
      <trkpt lat="31.94591260" lon="34.99209340">
        <ele>190.00000</ele>
        <time>2010-01-01T00:45:44Z</time>
      </trkpt>
      <trkpt lat="31.94608550" lon="34.99212020">
        <ele>189.00000</ele>
        <time>2010-01-01T00:45:51Z</time>
      </trkpt>
      <trkpt lat="31.94655440" lon="34.99229190">
        <ele>189.00000</ele>
        <time>2010-01-01T00:46:11Z</time>
      </trkpt>
      <trkpt lat="31.94667730" lon="34.99237770">
        <ele>189.00000</ele>
        <time>2010-01-01T00:46:16Z</time>
      </trkpt>
      <trkpt lat="31.94690490" lon="34.99239920">
        <ele>190.00000</ele>
        <time>2010-01-01T00:46:25Z</time>
      </trkpt>
      <trkpt lat="31.94698230" lon="34.99243670">
        <ele>189.00000</ele>
        <time>2010-01-01T00:46:29Z</time>
      </trkpt>
      <trkpt lat="31.94704140" lon="34.99254940">
        <ele>188.00000</ele>
        <time>2010-01-01T00:46:33Z</time>
      </trkpt>
      <trkpt lat="31.94713700" lon="34.99330580">
        <ele>183.00000</ele>
        <time>2010-01-01T00:46:59Z</time>
      </trkpt>
      <trkpt lat="31.94717340" lon="34.99345600">
        <ele>182.00000</ele>
        <time>2010-01-01T00:47:04Z</time>
      </trkpt>
      <trkpt lat="31.94726900" lon="34.99363300">
        <ele>181.00000</ele>
        <time>2010-01-01T00:47:12Z</time>
      </trkpt>
      <trkpt lat="31.94733730" lon="34.99370270">
        <ele>181.00000</ele>
        <time>2010-01-01T00:47:15Z</time>
      </trkpt>
      <trkpt lat="31.94749210" lon="34.99370270">
        <ele>181.00000</ele>
        <time>2010-01-01T00:47:21Z</time>
      </trkpt>
      <trkpt lat="31.94786530" lon="34.99369740">
        <ele>180.00000</ele>
        <time>2010-01-01T00:47:36Z</time>
      </trkpt>
      <trkpt lat="31.94816570" lon="34.99373490">
        <ele>179.00000</ele>
        <time>2010-01-01T00:47:48Z</time>
      </trkpt>
      <trkpt lat="31.94831140" lon="34.99375100">
        <ele>178.00000</ele>
        <time>2010-01-01T00:47:54Z</time>
      </trkpt>
      <trkpt lat="31.94904430" lon="34.99372420">
        <ele>174.00000</ele>
        <time>2010-01-01T00:48:24Z</time>
      </trkpt>
      <trkpt lat="31.94973610" lon="34.99364370">
        <ele>178.00000</ele>
        <time>2010-01-01T00:48:52Z</time>
      </trkpt>
      <trkpt lat="31.95015030" lon="34.99360080">
        <ele>175.00000</ele>
        <time>2010-01-01T00:49:08Z</time>
      </trkpt>
      <trkpt lat="31.95026870" lon="34.99360080">
        <ele>174.00000</ele>
        <time>2010-01-01T00:49:13Z</time>
      </trkpt>
      <trkpt lat="31.95044620" lon="34.99364370">
        <ele>172.00000</ele>
        <time>2010-01-01T00:49:20Z</time>
      </trkpt>
      <trkpt lat="31.95056450" lon="34.99370810">
        <ele>171.00000</ele>
        <time>2010-01-01T00:49:25Z</time>
      </trkpt>
      <trkpt lat="31.95067380" lon="34.99381540">
        <ele>170.00000</ele>
        <time>2010-01-01T00:49:31Z</time>
      </trkpt>
      <trkpt lat="31.95080120" lon="34.99396560">
        <ele>168.00000</ele>
        <time>2010-01-01T00:49:38Z</time>
      </trkpt>
      <trkpt lat="31.95069200" lon="34.99444840">
        <ele>170.00000</ele>
        <time>2010-01-01T00:49:55Z</time>
      </trkpt>
      <trkpt lat="31.95068000" lon="34.99444000">
        <ele>170.00000</ele>
        <time>2010-01-01T00:49:56Z</time>
      </trkpt>
      <trkpt lat="31.95046000" lon="34.99509000">
        <ele>175.00000</ele>
        <time>2010-01-01T00:50:20Z</time>
      </trkpt>
      <trkpt lat="31.95037000" lon="34.99528000">
        <ele>176.00000</ele>
        <time>2010-01-01T00:50:27Z</time>
      </trkpt>
      <trkpt lat="31.95024000" lon="34.99547000">
        <ele>179.00000</ele>
        <time>2010-01-01T00:50:35Z</time>
      </trkpt>
      <trkpt lat="31.95021000" lon="34.99571000">
        <ele>179.00000</ele>
        <time>2010-01-01T00:50:43Z</time>
      </trkpt>
      <trkpt lat="31.95014000" lon="34.99594000">
        <ele>179.00000</ele>
        <time>2010-01-01T00:50:52Z</time>
      </trkpt>
      <trkpt lat="31.95006390" lon="34.99607920">
        <ele>179.00000</ele>
        <time>2010-01-01T00:50:57Z</time>
      </trkpt>
      <trkpt lat="31.94989540" lon="34.99618110">
        <ele>180.00000</ele>
        <time>2010-01-01T00:51:05Z</time>
      </trkpt>
      <trkpt lat="31.94975430" lon="34.99629910">
        <ele>180.00000</ele>
        <time>2010-01-01T00:51:12Z</time>
      </trkpt>
      <trkpt lat="31.94967240" lon="34.99643860">
        <ele>179.00000</ele>
        <time>2010-01-01T00:51:18Z</time>
      </trkpt>
      <trkpt lat="31.94955410" lon="34.99674430">
        <ele>178.00000</ele>
        <time>2010-01-01T00:51:29Z</time>
      </trkpt>
      <trkpt lat="31.94944030" lon="34.99696430">
        <ele>181.00000</ele>
        <time>2010-01-01T00:51:38Z</time>
      </trkpt>
      <trkpt lat="31.94934010" lon="34.99710910">
        <ele>182.00000</ele>
        <time>2010-01-01T00:51:44Z</time>
      </trkpt>
      <trkpt lat="31.94916710" lon="34.99727540">
        <ele>186.00000</ele>
        <time>2010-01-01T00:51:53Z</time>
      </trkpt>
      <trkpt lat="31.94897600" lon="34.99746850">
        <ele>187.00000</ele>
        <time>2010-01-01T00:52:03Z</time>
      </trkpt>
      <trkpt lat="31.94885760" lon="34.99765090">
        <ele>187.00000</ele>
        <time>2010-01-01T00:52:11Z</time>
      </trkpt>
      <trkpt lat="31.94879850" lon="34.99777970">
        <ele>186.00000</ele>
        <time>2010-01-01T00:52:16Z</time>
      </trkpt>
      <trkpt lat="31.94873020" lon="34.99798350">
        <ele>186.00000</ele>
        <time>2010-01-01T00:52:23Z</time>
      </trkpt>
      <trkpt lat="31.94869830" lon="34.99812840">
        <ele>186.00000</ele>
        <time>2010-01-01T00:52:29Z</time>
      </trkpt>
      <trkpt lat="31.94875750" lon="34.99822490">
        <ele>185.00000</ele>
        <time>2010-01-01T00:52:33Z</time>
      </trkpt>
      <trkpt lat="31.94892140" lon="34.99831080">
        <ele>182.00000</ele>
        <time>2010-01-01T00:52:40Z</time>
      </trkpt>
      <trkpt lat="31.94899420" lon="34.99842880">
        <ele>180.00000</ele>
        <time>2010-01-01T00:52:45Z</time>
      </trkpt>
      <trkpt lat="31.94906700" lon="34.99860580">
        <ele>179.00000</ele>
        <time>2010-01-01T00:52:51Z</time>
      </trkpt>
      <trkpt lat="31.94910340" lon="34.99880430">
        <ele>180.00000</ele>
        <time>2010-01-01T00:52:58Z</time>
      </trkpt>
      <trkpt lat="31.94911710" lon="34.99905100">
        <ele>181.00000</ele>
        <time>2010-01-01T00:53:07Z</time>
      </trkpt>
      <trkpt lat="31.94903510" lon="34.99940510">
        <ele>180.00000</ele>
        <time>2010-01-01T00:53:19Z</time>
      </trkpt>
      <trkpt lat="31.94888950" lon="34.99950700">
        <ele>183.00000</ele>
        <time>2010-01-01T00:53:26Z</time>
      </trkpt>
      <trkpt lat="31.94876660" lon="34.99961430">
        <ele>183.00000</ele>
        <time>2010-01-01T00:53:32Z</time>
      </trkpt>
      <trkpt lat="31.94855720" lon="34.99969480">
        <ele>186.00000</ele>
        <time>2010-01-01T00:53:41Z</time>
      </trkpt>
      <trkpt lat="31.94843890" lon="34.99976990">
        <ele>185.00000</ele>
        <time>2010-01-01T00:53:46Z</time>
      </trkpt>
      <trkpt lat="31.94827500" lon="34.99993080">
        <ele>184.00000</ele>
        <time>2010-01-01T00:53:55Z</time>
      </trkpt>
      <trkpt lat="31.94813840" lon="35.00016150">
        <ele>183.00000</ele>
        <time>2010-01-01T00:54:04Z</time>
      </trkpt>
      <trkpt lat="31.94799280" lon="35.00036530">
        <ele>184.00000</ele>
        <time>2010-01-01T00:54:13Z</time>
      </trkpt>
      <trkpt lat="31.94774700" lon="35.00054240">
        <ele>188.00000</ele>
        <time>2010-01-01T00:54:25Z</time>
      </trkpt>
      <trkpt lat="31.94750120" lon="35.00071400">
        <ele>192.00000</ele>
        <time>2010-01-01T00:54:36Z</time>
      </trkpt>
      <trkpt lat="31.94725080" lon="35.00083740">
        <ele>194.00000</ele>
        <time>2010-01-01T00:54:47Z</time>
      </trkpt>
      <trkpt lat="31.94710520" lon="35.00086960">
        <ele>195.00000</ele>
        <time>2010-01-01T00:54:53Z</time>
      </trkpt>
      <trkpt lat="31.94675470" lon="35.00086420">
        <ele>196.00000</ele>
        <time>2010-01-01T00:55:07Z</time>
      </trkpt>
      <trkpt lat="31.94660440" lon="35.00082670">
        <ele>197.00000</ele>
        <time>2010-01-01T00:55:13Z</time>
      </trkpt>
      <trkpt lat="31.94624940" lon="35.00066040">
        <ele>199.00000</ele>
        <time>2010-01-01T00:55:29Z</time>
      </trkpt>
      <trkpt lat="31.94595350" lon="35.00055310">
        <ele>201.00000</ele>
        <time>2010-01-01T00:55:41Z</time>
      </trkpt>
      <trkpt lat="31.94574870" lon="35.00048330">
        <ele>202.00000</ele>
        <time>2010-01-01T00:55:50Z</time>
      </trkpt>
      <trkpt lat="31.94555290" lon="35.00037070">
        <ele>202.00000</ele>
        <time>2010-01-01T00:55:58Z</time>
      </trkpt>
      <trkpt lat="31.94544820" lon="35.00024730">
        <ele>201.00000</ele>
        <time>2010-01-01T00:56:04Z</time>
      </trkpt>
      <trkpt lat="31.94522520" lon="34.99987180">
        <ele>201.00000</ele>
        <time>2010-01-01T00:56:20Z</time>
      </trkpt>
      <trkpt lat="31.94508860" lon="34.99958210">
        <ele>204.00000</ele>
        <time>2010-01-01T00:56:31Z</time>
      </trkpt>
      <trkpt lat="31.94498390" lon="34.99943190">
        <ele>204.00000</ele>
        <time>2010-01-01T00:56:38Z</time>
      </trkpt>
      <trkpt lat="31.94470170" lon="34.99913150">
        <ele>201.00000</ele>
        <time>2010-01-01T00:56:53Z</time>
      </trkpt>
      <trkpt lat="31.94466080" lon="34.99900810">
        <ele>200.00000</ele>
        <time>2010-01-01T00:56:57Z</time>
      </trkpt>
      <trkpt lat="31.94465620" lon="34.99890080">
        <ele>200.00000</ele>
        <time>2010-01-01T00:57:01Z</time>
      </trkpt>
      <trkpt lat="31.94471080" lon="34.99868630">
        <ele>200.00000</ele>
        <time>2010-01-01T00:57:09Z</time>
      </trkpt>
      <trkpt lat="31.94479280" lon="34.99839660">
        <ele>201.00000</ele>
        <time>2010-01-01T00:57:19Z</time>
      </trkpt>
      <trkpt lat="31.94482920" lon="34.99817660">
        <ele>202.00000</ele>
        <time>2010-01-01T00:57:27Z</time>
      </trkpt>
      <trkpt lat="31.94483370" lon="34.99802110">
        <ele>202.00000</ele>
        <time>2010-01-01T00:57:32Z</time>
      </trkpt>
      <trkpt lat="31.94480640" lon="34.99789770">
        <ele>203.00000</ele>
        <time>2010-01-01T00:57:36Z</time>
      </trkpt>
      <trkpt lat="31.94474270" lon="34.99777970">
        <ele>203.00000</ele>
        <time>2010-01-01T00:57:41Z</time>
      </trkpt>
      <trkpt lat="31.94461980" lon="34.99767780">
        <ele>202.00000</ele>
        <time>2010-01-01T00:57:47Z</time>
      </trkpt>
      <trkpt lat="31.94441490" lon="34.99754360">
        <ele>200.00000</ele>
        <time>2010-01-01T00:57:56Z</time>
      </trkpt>
      <trkpt lat="31.94426930" lon="34.99749000">
        <ele>200.00000</ele>
        <time>2010-01-01T00:58:02Z</time>
      </trkpt>
      <trkpt lat="31.94412360" lon="34.99750070">
        <ele>200.00000</ele>
        <time>2010-01-01T00:58:08Z</time>
      </trkpt>
      <trkpt lat="31.94392790" lon="34.99758660">
        <ele>200.00000</ele>
        <time>2010-01-01T00:58:17Z</time>
      </trkpt>
      <trkpt lat="31.94362290" lon="34.99765090">
        <ele>202.00000</ele>
        <time>2010-01-01T00:58:29Z</time>
      </trkpt>
      <trkpt lat="31.94345900" lon="34.99766170">
        <ele>202.00000</ele>
        <time>2010-01-01T00:58:36Z</time>
      </trkpt>
      <trkpt lat="31.94294010" lon="34.99753290">
        <ele>203.00000</ele>
        <time>2010-01-01T00:58:57Z</time>
      </trkpt>
      <trkpt lat="31.94273520" lon="34.99751150">
        <ele>202.00000</ele>
        <time>2010-01-01T00:59:05Z</time>
      </trkpt>
      <trkpt lat="31.94260780" lon="34.99746850">
        <ele>203.00000</ele>
        <time>2010-01-01T00:59:10Z</time>
      </trkpt>
      <trkpt lat="31.94249850" lon="34.99737200">
        <ele>205.00000</ele>
        <time>2010-01-01T00:59:16Z</time>
      </trkpt>
      <trkpt lat="31.94233010" lon="34.99715740">
        <ele>209.00000</ele>
        <time>2010-01-01T00:59:26Z</time>
      </trkpt>
      <trkpt lat="31.94217530" lon="34.99694280">
        <ele>213.00000</ele>
        <time>2010-01-01T00:59:35Z</time>
      </trkpt>
      <trkpt lat="31.94207520" lon="34.99686240">
        <ele>213.00000</ele>
        <time>2010-01-01T00:59:40Z</time>
      </trkpt>
      <trkpt lat="31.94156080" lon="34.99650830">
        <ele>213.00000</ele>
        <time>2010-01-01T01:00:04Z</time>
      </trkpt>
      <trkpt lat="31.94104640" lon="34.99624010">
        <ele>214.00000</ele>
        <time>2010-01-01T01:00:27Z</time>
      </trkpt>
      <trkpt lat="31.94059570" lon="34.99597190">
        <ele>210.00000</ele>
        <time>2010-01-01T01:00:47Z</time>
      </trkpt>
      <trkpt lat="31.94046370" lon="34.99586460">
        <ele>211.00000</ele>
        <time>2010-01-01T01:00:53Z</time>
      </trkpt>
      <trkpt lat="31.94029530" lon="34.99566610">
        <ele>211.00000</ele>
        <time>2010-01-01T01:01:03Z</time>
      </trkpt>
      <trkpt lat="31.94015410" lon="34.99536570">
        <ele>210.00000</ele>
        <time>2010-01-01T01:01:14Z</time>
      </trkpt>
      <trkpt lat="31.94003120" lon="34.99504380">
        <ele>211.00000</ele>
        <time>2010-01-01T01:01:26Z</time>
      </trkpt>
      <trkpt lat="31.93989920" lon="34.99483460">
        <ele>211.00000</ele>
        <time>2010-01-01T01:01:35Z</time>
      </trkpt>
      <trkpt lat="31.93984000" lon="34.99477560">
        <ele>211.00000</ele>
        <time>2010-01-01T01:01:38Z</time>
      </trkpt>
      <trkpt lat="31.93973080" lon="34.99473270">
        <ele>210.00000</ele>
        <time>2010-01-01T01:01:43Z</time>
      </trkpt>
      <trkpt lat="31.93951230" lon="34.99473270">
        <ele>212.00000</ele>
        <time>2010-01-01T01:01:52Z</time>
      </trkpt>
      <trkpt lat="31.93936200" lon="34.99474880">
        <ele>213.00000</ele>
        <time>2010-01-01T01:01:58Z</time>
      </trkpt>
      <trkpt lat="31.93919820" lon="34.99481320">
        <ele>215.00000</ele>
        <time>2010-01-01T01:02:05Z</time>
      </trkpt>
      <trkpt lat="31.93908430" lon="34.99487220">
        <ele>215.00000</ele>
        <time>2010-01-01T01:02:10Z</time>
      </trkpt>
      <trkpt lat="31.93902060" lon="34.99496340">
        <ele>214.00000</ele>
        <time>2010-01-01T01:02:14Z</time>
      </trkpt>
      <trkpt lat="31.93895230" lon="34.99505990">
        <ele>214.00000</ele>
        <time>2010-01-01T01:02:18Z</time>
      </trkpt>
      <trkpt lat="31.93889320" lon="34.99521010">
        <ele>213.00000</ele>
        <time>2010-01-01T01:02:24Z</time>
      </trkpt>
      <trkpt lat="31.93886130" lon="34.99538180">
        <ele>211.00000</ele>
        <time>2010-01-01T01:02:30Z</time>
      </trkpt>
      <trkpt lat="31.93879760" lon="34.99552660">
        <ele>209.00000</ele>
        <time>2010-01-01T01:02:35Z</time>
      </trkpt>
      <trkpt lat="31.93874290" lon="34.99563390">
        <ele>208.00000</ele>
        <time>2010-01-01T01:02:39Z</time>
      </trkpt>
      <trkpt lat="31.93866100" lon="34.99571440">
        <ele>208.00000</ele>
        <time>2010-01-01T01:02:44Z</time>
      </trkpt>
      <trkpt lat="31.93854720" lon="34.99578950">
        <ele>208.00000</ele>
        <time>2010-01-01T01:02:49Z</time>
      </trkpt>
      <trkpt lat="31.93841970" lon="34.99581090">
        <ele>210.00000</ele>
        <time>2010-01-01T01:02:54Z</time>
      </trkpt>
      <trkpt lat="31.93815570" lon="34.99587530">
        <ele>212.00000</ele>
        <time>2010-01-01T01:03:05Z</time>
      </trkpt>
      <trkpt lat="31.93759570" lon="34.99607920">
        <ele>212.00000</ele>
        <time>2010-01-01T01:03:28Z</time>
      </trkpt>
      <trkpt lat="31.93699480" lon="34.99622400">
        <ele>205.00000</ele>
        <time>2010-01-01T01:03:53Z</time>
      </trkpt>
      <trkpt lat="31.93674440" lon="34.99624010">
        <ele>208.00000</ele>
        <time>2010-01-01T01:04:03Z</time>
      </trkpt>
      <trkpt lat="31.93662150" lon="34.99626690">
        <ele>208.00000</ele>
        <time>2010-01-01T01:04:08Z</time>
      </trkpt>
      <trkpt lat="31.93648040" lon="34.99627760">
        <ele>208.00000</ele>
        <time>2010-01-01T01:04:13Z</time>
      </trkpt>
      <trkpt lat="31.93633470" lon="34.99625080">
        <ele>209.00000</ele>
        <time>2010-01-01T01:04:19Z</time>
      </trkpt>
      <trkpt lat="31.93619810" lon="34.99620250">
        <ele>211.00000</ele>
        <time>2010-01-01T01:04:25Z</time>
      </trkpt>
      <trkpt lat="31.93601600" lon="34.99612740">
        <ele>212.00000</ele>
        <time>2010-01-01T01:04:33Z</time>
      </trkpt>
      <trkpt lat="31.93590220" lon="34.99611670">
        <ele>212.00000</ele>
        <time>2010-01-01T01:04:37Z</time>
      </trkpt>
      <trkpt lat="31.93562450" lon="34.99612210">
        <ele>211.00000</ele>
        <time>2010-01-01T01:04:48Z</time>
      </trkpt>
      <trkpt lat="31.93535140" lon="34.99620250">
        <ele>210.00000</ele>
        <time>2010-01-01T01:05:00Z</time>
      </trkpt>
      <trkpt lat="31.93508280" lon="34.99632590">
        <ele>209.00000</ele>
        <time>2010-01-01T01:05:11Z</time>
      </trkpt>
      <trkpt lat="31.93439540" lon="34.99673900">
        <ele>208.00000</ele>
        <time>2010-01-01T01:05:42Z</time>
      </trkpt>
      <trkpt lat="31.93428150" lon="34.99683020">
        <ele>207.00000</ele>
        <time>2010-01-01T01:05:48Z</time>
      </trkpt>
      <trkpt lat="31.93415410" lon="34.99721640">
        <ele>205.00000</ele>
        <time>2010-01-01T01:06:02Z</time>
      </trkpt>
      <trkpt lat="31.93396290" lon="34.99760800">
        <ele>206.00000</ele>
        <time>2010-01-01T01:06:17Z</time>
      </trkpt>
      <trkpt lat="31.93363960" lon="34.99798350">
        <ele>209.00000</ele>
        <time>2010-01-01T01:06:35Z</time>
      </trkpt>
      <trkpt lat="31.93351220" lon="34.99818740">
        <ele>208.00000</ele>
        <time>2010-01-01T01:06:44Z</time>
      </trkpt>
      <trkpt lat="31.93333460" lon="34.99844490">
        <ele>208.00000</ele>
        <time>2010-01-01T01:06:55Z</time>
      </trkpt>
      <trkpt lat="31.93312970" lon="34.99861650">
        <ele>211.00000</ele>
        <time>2010-01-01T01:07:05Z</time>
      </trkpt>
      <trkpt lat="31.93287930" lon="34.99877750">
        <ele>212.00000</ele>
        <time>2010-01-01T01:07:17Z</time>
      </trkpt>
      <trkpt lat="31.93269720" lon="34.99893300">
        <ele>210.00000</ele>
        <time>2010-01-01T01:07:26Z</time>
      </trkpt>
      <trkpt lat="31.93238310" lon="34.99909930">
        <ele>208.00000</ele>
        <time>2010-01-01T01:07:39Z</time>
      </trkpt>
      <trkpt lat="31.93210080" lon="34.99926030">
        <ele>209.00000</ele>
        <time>2010-01-01T01:07:52Z</time>
      </trkpt>
      <trkpt lat="31.93189600" lon="34.99940510">
        <ele>210.00000</ele>
        <time>2010-01-01T01:08:02Z</time>
      </trkpt>
      <trkpt lat="31.93181400" lon="34.99949090">
        <ele>211.00000</ele>
        <time>2010-01-01T01:08:06Z</time>
      </trkpt>
      <trkpt lat="31.93164560" lon="34.99972160">
        <ele>212.00000</ele>
        <time>2010-01-01T01:08:16Z</time>
      </trkpt>
      <trkpt lat="31.93150900" lon="34.99989330">
        <ele>211.00000</ele>
        <time>2010-01-01T01:08:24Z</time>
      </trkpt>
      <trkpt lat="31.93141340" lon="35.00002200">
        <ele>210.00000</ele>
        <time>2010-01-01T01:08:30Z</time>
      </trkpt>
      <trkpt lat="31.93126770" lon="35.00011320">
        <ele>210.00000</ele>
        <time>2010-01-01T01:08:37Z</time>
      </trkpt>
      <trkpt lat="31.93105370" lon="35.00018830">
        <ele>212.00000</ele>
        <time>2010-01-01T01:08:46Z</time>
      </trkpt>
      <trkpt lat="31.93067590" lon="35.00018830">
        <ele>212.00000</ele>
        <time>2010-01-01T01:09:01Z</time>
      </trkpt>
      <trkpt lat="31.93020690" lon="35.00005420">
        <ele>211.00000</ele>
        <time>2010-01-01T01:09:20Z</time>
      </trkpt>
      <trkpt lat="31.92995650" lon="34.99994150">
        <ele>209.00000</ele>
        <time>2010-01-01T01:09:31Z</time>
      </trkpt>
      <trkpt lat="31.92986550" lon="34.99987720">
        <ele>209.00000</ele>
        <time>2010-01-01T01:09:35Z</time>
      </trkpt>
      <trkpt lat="31.92971520" lon="34.99974840">
        <ele>208.00000</ele>
        <time>2010-01-01T01:09:42Z</time>
      </trkpt>
      <trkpt lat="31.92951490" lon="34.99945340">
        <ele>209.00000</ele>
        <time>2010-01-01T01:09:55Z</time>
      </trkpt>
      <trkpt lat="31.92923260" lon="34.99913150">
        <ele>209.00000</ele>
        <time>2010-01-01T01:10:11Z</time>
      </trkpt>
      <trkpt lat="31.92911430" lon="34.99912080">
        <ele>209.00000</ele>
        <time>2010-01-01T01:10:16Z</time>
      </trkpt>
      <trkpt lat="31.92905050" lon="34.99902960">
        <ele>211.00000</ele>
        <time>2010-01-01T01:10:20Z</time>
      </trkpt>
      <trkpt lat="31.92901410" lon="34.99875600">
        <ele>212.00000</ele>
        <time>2010-01-01T01:10:29Z</time>
      </trkpt>
      <trkpt lat="31.92897770" lon="34.99842880">
        <ele>215.00000</ele>
        <time>2010-01-01T01:10:40Z</time>
      </trkpt>
      <trkpt lat="31.92896860" lon="34.99817130">
        <ele>216.00000</ele>
        <time>2010-01-01T01:10:49Z</time>
      </trkpt>
      <trkpt lat="31.92889570" lon="34.99784940">
        <ele>216.00000</ele>
        <time>2010-01-01T01:11:01Z</time>
      </trkpt>
      <trkpt lat="31.92886390" lon="34.99767780">
        <ele>218.00000</ele>
        <time>2010-01-01T01:11:06Z</time>
      </trkpt>
      <trkpt lat="31.92880010" lon="34.99747930">
        <ele>220.00000</ele>
        <time>2010-01-01T01:11:14Z</time>
      </trkpt>
      <trkpt lat="31.92873640" lon="34.99703400">
        <ele>224.00000</ele>
        <time>2010-01-01T01:11:29Z</time>
      </trkpt>
      <trkpt lat="31.92870000" lon="34.99678730">
        <ele>225.00000</ele>
        <time>2010-01-01T01:11:38Z</time>
      </trkpt>
      <trkpt lat="31.92866810" lon="34.99668530">
        <ele>226.00000</ele>
        <time>2010-01-01T01:11:41Z</time>
      </trkpt>
      <trkpt lat="31.92861350" lon="34.99659410">
        <ele>228.00000</ele>
        <time>2010-01-01T01:11:45Z</time>
      </trkpt>
      <trkpt lat="31.92850870" lon="34.99652440">
        <ele>229.00000</ele>
        <time>2010-01-01T01:11:50Z</time>
      </trkpt>
      <trkpt lat="31.92838580" lon="34.99644930">
        <ele>229.00000</ele>
        <time>2010-01-01T01:11:55Z</time>
      </trkpt>
      <trkpt lat="31.92824010" lon="34.99623470">
        <ele>230.00000</ele>
        <time>2010-01-01T01:12:05Z</time>
      </trkpt>
      <trkpt lat="31.92856340" lon="34.99599870">
        <ele>231.00000</ele>
        <time>2010-01-01T01:12:20Z</time>
      </trkpt>
      <trkpt lat="31.92853150" lon="34.99459320">
        <ele>235.00000</ele>
        <time>2010-01-01T01:13:08Z</time>
      </trkpt>
      <trkpt lat="31.92855880" lon="34.99445910">
        <ele>236.00000</ele>
        <time>2010-01-01T01:13:12Z</time>
      </trkpt>
      <trkpt lat="31.92864990" lon="34.99448590">
        <ele>237.00000</ele>
        <time>2010-01-01T01:13:16Z</time>
      </trkpt>
      <trkpt lat="31.92872270" lon="34.99453420">
        <ele>238.00000</ele>
        <time>2010-01-01T01:13:19Z</time>
      </trkpt>
      <trkpt lat="31.92874550" lon="34.99459860">
        <ele>238.00000</ele>
        <time>2010-01-01T01:13:22Z</time>
      </trkpt>
      <trkpt lat="31.92905050" lon="34.99462000">
        <ele>240.00000</ele>
        <time>2010-01-01T01:13:34Z</time>
      </trkpt>
      <trkpt lat="31.92945570" lon="34.99449670">
        <ele>242.00000</ele>
        <time>2010-01-01T01:13:51Z</time>
      </trkpt>
      <trkpt lat="31.93013410" lon="34.99359010">
        <ele>237.00000</ele>
        <time>2010-01-01T01:14:32Z</time>
      </trkpt>
      <trkpt lat="31.93110380" lon="34.99213630">
        <ele>223.00000</ele>
        <time>2010-01-01T01:15:35Z</time>
      </trkpt>
      <trkpt lat="31.93136790" lon="34.99200760">
        <ele>219.00000</ele>
        <time>2010-01-01T01:15:46Z</time>
      </trkpt>
      <trkpt lat="31.93146350" lon="34.99195930">
        <ele>219.00000</ele>
        <time>2010-01-01T01:15:50Z</time>
      </trkpt>
      <trkpt lat="31.93162740" lon="34.99176620">
        <ele>220.00000</ele>
        <time>2010-01-01T01:16:00Z</time>
      </trkpt>
      <trkpt lat="31.93212360" lon="34.99146040">
        <ele>223.00000</ele>
        <time>2010-01-01T01:16:22Z</time>
      </trkpt>
      <trkpt lat="31.93241500" lon="34.99132630">
        <ele>223.00000</ele>
        <time>2010-01-01T01:16:35Z</time>
      </trkpt>
      <trkpt lat="31.93267450" lon="34.99121900">
        <ele>222.00000</ele>
        <time>2010-01-01T01:16:46Z</time>
      </trkpt>
      <trkpt lat="31.93287930" lon="34.99102050">
        <ele>223.00000</ele>
        <time>2010-01-01T01:16:56Z</time>
      </trkpt>
      <trkpt lat="31.93386270" lon="34.99069860">
        <ele>223.00000</ele>
        <time>2010-01-01T01:17:37Z</time>
      </trkpt>
      <trkpt lat="31.93464570" lon="34.99048410">
        <ele>223.00000</ele>
        <time>2010-01-01T01:18:09Z</time>
      </trkpt>
      <trkpt lat="31.93483700" lon="34.99041430">
        <ele>223.00000</ele>
        <time>2010-01-01T01:18:17Z</time>
      </trkpt>
      <trkpt lat="31.93555620" lon="34.99002810">
        <ele>223.00000</ele>
        <time>2010-01-01T01:18:49Z</time>
      </trkpt>
      <trkpt lat="31.93598870" lon="34.98969550">
        <ele>219.00000</ele>
        <time>2010-01-01T01:19:10Z</time>
      </trkpt>
      <trkpt lat="31.93639390" lon="34.98929850">
        <ele>217.00000</ele>
        <time>2010-01-01T01:19:31Z</time>
      </trkpt>
      <trkpt lat="31.93658050" lon="34.98905710">
        <ele>217.00000</ele>
        <time>2010-01-01T01:19:42Z</time>
      </trkpt>
      <trkpt lat="31.93680360" lon="34.98880500">
        <ele>216.00000</ele>
        <time>2010-01-01T01:19:54Z</time>
      </trkpt>
      <trkpt lat="31.93686730" lon="34.98866550">
        <ele>215.00000</ele>
        <time>2010-01-01T01:19:59Z</time>
      </trkpt>
      <trkpt lat="31.93699940" lon="34.98846170">
        <ele>214.00000</ele>
        <time>2010-01-01T01:20:08Z</time>
      </trkpt>
      <trkpt lat="31.93706770" lon="34.98826860">
        <ele>213.00000</ele>
        <time>2010-01-01T01:20:15Z</time>
      </trkpt>
      <trkpt lat="31.93708130" lon="34.98810760">
        <ele>212.00000</ele>
        <time>2010-01-01T01:20:21Z</time>
      </trkpt>
      <trkpt lat="31.93702210" lon="34.98802180">
        <ele>211.00000</ele>
        <time>2010-01-01T01:20:25Z</time>
      </trkpt>
      <trkpt lat="31.93689920" lon="34.98830610">
        <ele>213.00000</ele>
        <time>2010-01-01T01:20:35Z</time>
      </trkpt>
      <trkpt lat="31.93686730" lon="34.98837590">
        <ele>213.00000</ele>
        <time>2010-01-01T01:20:38Z</time>
      </trkpt>
      <trkpt lat="31.93665790" lon="34.98820420">
        <ele>212.00000</ele>
        <time>2010-01-01T01:20:48Z</time>
      </trkpt>
      <trkpt lat="31.93653960" lon="34.98810760">
        <ele>212.00000</ele>
        <time>2010-01-01T01:20:54Z</time>
      </trkpt>
      <trkpt lat="31.93643490" lon="34.98801640">
        <ele>212.00000</ele>
        <time>2010-01-01T01:20:59Z</time>
      </trkpt>
      <trkpt lat="31.93637570" lon="34.98789840">
        <ele>212.00000</ele>
        <time>2010-01-01T01:21:04Z</time>
      </trkpt>
      <trkpt lat="31.93633470" lon="34.98750680">
        <ele>212.00000</ele>
        <time>2010-01-01T01:21:17Z</time>
      </trkpt>
      <trkpt lat="31.93640760" lon="34.98734590">
        <ele>212.00000</ele>
        <time>2010-01-01T01:21:24Z</time>
      </trkpt>
      <trkpt lat="31.93654410" lon="34.98729760">
        <ele>212.00000</ele>
        <time>2010-01-01T01:21:29Z</time>
      </trkpt>
      <trkpt lat="31.93673990" lon="34.98717420">
        <ele>211.00000</ele>
        <time>2010-01-01T01:21:38Z</time>
      </trkpt>
      <trkpt lat="31.93684000" lon="34.98702400">
        <ele>210.00000</ele>
        <time>2010-01-01T01:21:45Z</time>
      </trkpt>
      <trkpt lat="31.93691290" lon="34.98682020">
        <ele>210.00000</ele>
        <time>2010-01-01T01:21:52Z</time>
      </trkpt>
      <trkpt lat="31.93698570" lon="34.98656270">
        <ele>210.00000</ele>
        <time>2010-01-01T01:22:01Z</time>
      </trkpt>
      <trkpt lat="31.93702210" lon="34.98616030">
        <ele>208.00000</ele>
        <time>2010-01-01T01:22:15Z</time>
      </trkpt>
      <trkpt lat="31.93712230" lon="34.98565070">
        <ele>207.00000</ele>
        <time>2010-01-01T01:22:33Z</time>
      </trkpt>
      <trkpt lat="31.93723150" lon="34.98501240">
        <ele>206.00000</ele>
        <time>2010-01-01T01:22:55Z</time>
      </trkpt>
      <trkpt lat="31.93743180" lon="34.98446520">
        <ele>205.00000</ele>
        <time>2010-01-01T01:23:15Z</time>
      </trkpt>
      <trkpt lat="31.93777780" lon="34.98392340">
        <ele>208.00000</ele>
        <time>2010-01-01T01:23:38Z</time>
      </trkpt>
      <trkpt lat="31.93772320" lon="34.98377850">
        <ele>209.00000</ele>
        <time>2010-01-01T01:23:44Z</time>
      </trkpt>
      <trkpt lat="31.93762760" lon="34.98348890">
        <ele>208.00000</ele>
        <time>2010-01-01T01:23:54Z</time>
      </trkpt>
      <trkpt lat="31.93752740" lon="34.98330650">
        <ele>205.00000</ele>
        <time>2010-01-01T01:24:02Z</time>
      </trkpt>
      <trkpt lat="31.93746370" lon="34.98316160">
        <ele>202.00000</ele>
        <time>2010-01-01T01:24:07Z</time>
      </trkpt>
      <trkpt lat="31.93737720" lon="34.98265200">
        <ele>196.00000</ele>
        <time>2010-01-01T01:24:25Z</time>
      </trkpt>
      <trkpt lat="31.93730440" lon="34.98222290">
        <ele>194.00000</ele>
        <time>2010-01-01T01:24:40Z</time>
      </trkpt>
      <trkpt lat="31.93729530" lon="34.98205660">
        <ele>193.00000</ele>
        <time>2010-01-01T01:24:45Z</time>
      </trkpt>
      <trkpt lat="31.93721330" lon="34.98190640">
        <ele>192.00000</ele>
        <time>2010-01-01T01:24:51Z</time>
      </trkpt>
      <trkpt lat="31.93710410" lon="34.98179910">
        <ele>190.00000</ele>
        <time>2010-01-01T01:24:57Z</time>
      </trkpt>
      <trkpt lat="31.93695380" lon="34.98173470">
        <ele>188.00000</ele>
        <time>2010-01-01T01:25:03Z</time>
      </trkpt>
      <trkpt lat="31.93688100" lon="34.98157910">
        <ele>185.00000</ele>
        <time>2010-01-01T01:25:10Z</time>
      </trkpt>
      <trkpt lat="31.93688100" lon="34.98152550">
        <ele>185.00000</ele>
        <time>2010-01-01T01:25:11Z</time>
      </trkpt>
      <trkpt lat="31.93679910" lon="34.98138600">
        <ele>182.00000</ele>
        <time>2010-01-01T01:25:17Z</time>
      </trkpt>
      <trkpt lat="31.93662150" lon="34.98121440">
        <ele>179.00000</ele>
        <time>2010-01-01T01:25:26Z</time>
      </trkpt>
      <trkpt lat="31.93660790" lon="34.98107490">
        <ele>178.00000</ele>
        <time>2010-01-01T01:25:31Z</time>
      </trkpt>
      <trkpt lat="31.93666250" lon="34.98098370">
        <ele>178.00000</ele>
        <time>2010-01-01T01:25:35Z</time>
      </trkpt>
      <trkpt lat="31.93670350" lon="34.98072080">
        <ele>176.00000</ele>
        <time>2010-01-01T01:25:44Z</time>
      </trkpt>
      <trkpt lat="31.93660330" lon="34.98062430">
        <ele>175.00000</ele>
        <time>2010-01-01T01:25:49Z</time>
      </trkpt>
      <trkpt lat="31.93647130" lon="34.98061350">
        <ele>174.00000</ele>
        <time>2010-01-01T01:25:54Z</time>
      </trkpt>
      <trkpt lat="31.93630280" lon="34.98072080">
        <ele>175.00000</ele>
        <time>2010-01-01T01:26:02Z</time>
      </trkpt>
      <trkpt lat="31.93613900" lon="34.98086570">
        <ele>176.00000</ele>
        <time>2010-01-01T01:26:10Z</time>
      </trkpt>
      <trkpt lat="31.93589770" lon="34.98088710">
        <ele>179.00000</ele>
        <time>2010-01-01T01:26:20Z</time>
      </trkpt>
      <trkpt lat="31.93575200" lon="34.98115000">
        <ele>180.00000</ele>
        <time>2010-01-01T01:26:31Z</time>
      </trkpt>
      <trkpt lat="31.93563360" lon="34.98138070">
        <ele>179.00000</ele>
        <time>2010-01-01T01:26:40Z</time>
      </trkpt>
      <trkpt lat="31.93546970" lon="34.98157380">
        <ele>181.00000</ele>
        <time>2010-01-01T01:26:49Z</time>
      </trkpt>
      <trkpt lat="31.93527850" lon="34.98169180">
        <ele>182.00000</ele>
        <time>2010-01-01T01:26:58Z</time>
      </trkpt>
      <trkpt lat="31.93502820" lon="34.98174010">
        <ele>188.00000</ele>
        <time>2010-01-01T01:27:08Z</time>
      </trkpt>
      <trkpt lat="31.93448640" lon="34.98188490">
        <ele>193.00000</ele>
        <time>2010-01-01T01:27:30Z</time>
      </trkpt>
      <trkpt lat="31.93439990" lon="34.98185270">
        <ele>194.00000</ele>
        <time>2010-01-01T01:27:34Z</time>
      </trkpt>
      <trkpt lat="31.93439080" lon="34.98162740">
        <ele>197.00000</ele>
        <time>2010-01-01T01:27:41Z</time>
      </trkpt>
      <trkpt lat="31.93442720" lon="34.98141280">
        <ele>199.00000</ele>
        <time>2010-01-01T01:27:49Z</time>
      </trkpt>
      <trkpt lat="31.93457290" lon="34.98089790">
        <ele>202.00000</ele>
        <time>2010-01-01T01:28:07Z</time>
      </trkpt>
      <trkpt lat="31.93468220" lon="34.98031850">
        <ele>204.00000</ele>
        <time>2010-01-01T01:28:27Z</time>
      </trkpt>
      <trkpt lat="31.93466400" lon="34.97998050">
        <ele>204.00000</ele>
        <time>2010-01-01T01:28:39Z</time>
      </trkpt>
      <trkpt lat="31.93454100" lon="34.97962650">
        <ele>204.00000</ele>
        <time>2010-01-01T01:28:52Z</time>
      </trkpt>
      <trkpt lat="31.93453650" lon="34.97949770">
        <ele>203.00000</ele>
        <time>2010-01-01T01:28:56Z</time>
      </trkpt>
      <trkpt lat="31.93485060" lon="34.97889690">
        <ele>198.00000</ele>
        <time>2010-01-01T01:29:20Z</time>
      </trkpt>
      <trkpt lat="31.93493260" lon="34.97869840">
        <ele>196.00000</ele>
        <time>2010-01-01T01:29:28Z</time>
      </trkpt>
      <trkpt lat="31.93506910" lon="34.97818350">
        <ele>196.00000</ele>
        <time>2010-01-01T01:29:46Z</time>
      </trkpt>
      <trkpt lat="31.93514650" lon="34.97757730">
        <ele>192.00000</ele>
        <time>2010-01-01T01:30:07Z</time>
      </trkpt>
      <trkpt lat="31.93507370" lon="34.97704620">
        <ele>194.00000</ele>
        <time>2010-01-01T01:30:25Z</time>
      </trkpt>
      <trkpt lat="31.93497810" lon="34.97673510">
        <ele>194.00000</ele>
        <time>2010-01-01T01:30:36Z</time>
      </trkpt>
      <trkpt lat="31.93459570" lon="34.97601620">
        <ele>190.00000</ele>
        <time>2010-01-01T01:31:05Z</time>
      </trkpt>
      <trkpt lat="31.93440450" lon="34.97597330">
        <ele>191.00000</ele>
        <time>2010-01-01T01:31:13Z</time>
      </trkpt>
      <trkpt lat="31.93420870" lon="34.97604310">
        <ele>191.00000</ele>
        <time>2010-01-01T01:31:21Z</time>
      </trkpt>
      <trkpt lat="31.93407210" lon="34.97616640">
        <ele>192.00000</ele>
        <time>2010-01-01T01:31:28Z</time>
      </trkpt>
      <trkpt lat="31.93399930" lon="34.97627370">
        <ele>192.00000</ele>
        <time>2010-01-01T01:31:33Z</time>
      </trkpt>
      <trkpt lat="31.93395380" lon="34.97637030">
        <ele>193.00000</ele>
        <time>2010-01-01T01:31:37Z</time>
      </trkpt>
      <trkpt lat="31.93393550" lon="34.97648830">
        <ele>193.00000</ele>
        <time>2010-01-01T01:31:41Z</time>
      </trkpt>
      <trkpt lat="31.93392640" lon="34.97683160">
        <ele>192.00000</ele>
        <time>2010-01-01T01:31:52Z</time>
      </trkpt>
      <trkpt lat="31.93398110" lon="34.97720180">
        <ele>192.00000</ele>
        <time>2010-01-01T01:32:05Z</time>
      </trkpt>
      <trkpt lat="31.93411310" lon="34.97764700">
        <ele>196.00000</ele>
        <time>2010-01-01T01:32:21Z</time>
      </trkpt>
      <trkpt lat="31.93421330" lon="34.97817270">
        <ele>195.00000</ele>
        <time>2010-01-01T01:32:39Z</time>
      </trkpt>
      <trkpt lat="31.93423150" lon="34.97827470">
        <ele>195.00000</ele>
        <time>2010-01-01T01:32:43Z</time>
      </trkpt>
      <trkpt lat="31.93421780" lon="34.97845170">
        <ele>195.00000</ele>
        <time>2010-01-01T01:32:49Z</time>
      </trkpt>
      <trkpt lat="31.93416770" lon="34.97862330">
        <ele>195.00000</ele>
        <time>2010-01-01T01:32:55Z</time>
      </trkpt>
      <trkpt lat="31.93410850" lon="34.97874140">
        <ele>195.00000</ele>
        <time>2010-01-01T01:33:00Z</time>
      </trkpt>
      <trkpt lat="31.93405390" lon="34.97885940">
        <ele>195.00000</ele>
        <time>2010-01-01T01:33:04Z</time>
      </trkpt>
      <trkpt lat="31.93398560" lon="34.97893450">
        <ele>196.00000</ele>
        <time>2010-01-01T01:33:08Z</time>
      </trkpt>
      <trkpt lat="31.93383990" lon="34.97898280">
        <ele>197.00000</ele>
        <time>2010-01-01T01:33:14Z</time>
      </trkpt>
      <trkpt lat="31.93338920" lon="34.97909540">
        <ele>198.00000</ele>
        <time>2010-01-01T01:33:33Z</time>
      </trkpt>
      <trkpt lat="31.93327090" lon="34.97915440">
        <ele>198.00000</ele>
        <time>2010-01-01T01:33:38Z</time>
      </trkpt>
      <trkpt lat="31.93317980" lon="34.97926170">
        <ele>197.00000</ele>
        <time>2010-01-01T01:33:43Z</time>
      </trkpt>
      <trkpt lat="31.93298860" lon="34.97959970">
        <ele>195.00000</ele>
        <time>2010-01-01T01:33:57Z</time>
      </trkpt>
      <trkpt lat="31.93296130" lon="34.97966940">
        <ele>195.00000</ele>
        <time>2010-01-01T01:33:59Z</time>
      </trkpt>
      <trkpt lat="31.93297040" lon="34.97975520">
        <ele>195.00000</ele>
        <time>2010-01-01T01:34:02Z</time>
      </trkpt>
      <trkpt lat="31.93299320" lon="34.97987860">
        <ele>195.00000</ele>
        <time>2010-01-01T01:34:07Z</time>
      </trkpt>
      <trkpt lat="31.93314800" lon="34.98032390">
        <ele>197.00000</ele>
        <time>2010-01-01T01:34:23Z</time>
      </trkpt>
      <trkpt lat="31.93317070" lon="34.98046870">
        <ele>196.00000</ele>
        <time>2010-01-01T01:34:28Z</time>
      </trkpt>
      <trkpt lat="31.93315710" lon="34.98059210">
        <ele>196.00000</ele>
        <time>2010-01-01T01:34:32Z</time>
      </trkpt>
      <trkpt lat="31.93310700" lon="34.98065650">
        <ele>196.00000</ele>
        <time>2010-01-01T01:34:35Z</time>
      </trkpt>
      <trkpt lat="31.93300230" lon="34.98074760">
        <ele>195.00000</ele>
        <time>2010-01-01T01:34:40Z</time>
      </trkpt>
      <trkpt lat="31.93289300" lon="34.98079060">
        <ele>194.00000</ele>
        <time>2010-01-01T01:34:45Z</time>
      </trkpt>
      <trkpt lat="31.93259710" lon="34.98075840">
        <ele>189.00000</ele>
        <time>2010-01-01T01:34:57Z</time>
      </trkpt>
      <trkpt lat="31.93242860" lon="34.98068330">
        <ele>187.00000</ele>
        <time>2010-01-01T01:35:04Z</time>
      </trkpt>
      <trkpt lat="31.93230570" lon="34.98062430">
        <ele>185.00000</ele>
        <time>2010-01-01T01:35:09Z</time>
      </trkpt>
      <trkpt lat="31.93209170" lon="34.98057060">
        <ele>182.00000</ele>
        <time>2010-01-01T01:35:18Z</time>
      </trkpt>
      <trkpt lat="31.93194150" lon="34.98057600">
        <ele>181.00000</ele>
        <time>2010-01-01T01:35:24Z</time>
      </trkpt>
      <trkpt lat="31.93177310" lon="34.98064040">
        <ele>179.00000</ele>
        <time>2010-01-01T01:35:31Z</time>
      </trkpt>
      <trkpt lat="31.93160010" lon="34.98067250">
        <ele>177.00000</ele>
        <time>2010-01-01T01:35:38Z</time>
      </trkpt>
      <trkpt lat="31.93149990" lon="34.98065110">
        <ele>176.00000</ele>
        <time>2010-01-01T01:35:42Z</time>
      </trkpt>
      <trkpt lat="31.93145890" lon="34.98058140">
        <ele>175.00000</ele>
        <time>2010-01-01T01:35:45Z</time>
      </trkpt>
      <trkpt lat="31.93127230" lon="34.98076910">
        <ele>176.00000</ele>
        <time>2010-01-01T01:35:55Z</time>
      </trkpt>
      <trkpt lat="31.93122670" lon="34.98087640">
        <ele>176.00000</ele>
        <time>2010-01-01T01:35:59Z</time>
      </trkpt>
      <trkpt lat="31.93119940" lon="34.98098370">
        <ele>177.00000</ele>
        <time>2010-01-01T01:36:03Z</time>
      </trkpt>
      <trkpt lat="31.93114930" lon="34.98141280">
        <ele>178.00000</ele>
        <time>2010-01-01T01:36:18Z</time>
      </trkpt>
      <trkpt lat="31.93114000" lon="34.98141000">
        <ele>178.00000</ele>
        <time>2010-01-01T01:36:18Z</time>
      </trkpt>
      <trkpt lat="31.93102000" lon="34.98186000">
        <ele>176.00000</ele>
        <time>2010-01-01T01:36:34Z</time>
      </trkpt>
      <trkpt lat="31.93092000" lon="34.98214000">
        <ele>176.00000</ele>
        <time>2010-01-01T01:36:44Z</time>
      </trkpt>
      <trkpt lat="31.93084000" lon="34.98233000">
        <ele>176.00000</ele>
        <time>2010-01-01T01:36:52Z</time>
      </trkpt>
      <trkpt lat="31.93070000" lon="34.98258000">
        <ele>178.00000</ele>
        <time>2010-01-01T01:37:02Z</time>
      </trkpt>
      <trkpt lat="31.93066000" lon="34.98270000">
        <ele>179.00000</ele>
        <time>2010-01-01T01:37:06Z</time>
      </trkpt>
      <trkpt lat="31.93063000" lon="34.98295000">
        <ele>179.00000</ele>
        <time>2010-01-01T01:37:15Z</time>
      </trkpt>
      <trkpt lat="31.93066000" lon="34.98312000">
        <ele>180.00000</ele>
        <time>2010-01-01T01:37:21Z</time>
      </trkpt>
      <trkpt lat="31.93072000" lon="34.98328000">
        <ele>181.00000</ele>
        <time>2010-01-01T01:37:26Z</time>
      </trkpt>
      <trkpt lat="31.93071000" lon="34.98331000">
        <ele>181.00000</ele>
        <time>2010-01-01T01:37:28Z</time>
      </trkpt>
      <trkpt lat="31.93064000" lon="34.98335000">
        <ele>181.00000</ele>
        <time>2010-01-01T01:37:31Z</time>
      </trkpt>
      <trkpt lat="31.93050000" lon="34.98333000">
        <ele>180.00000</ele>
        <time>2010-01-01T01:37:36Z</time>
      </trkpt>
      <trkpt lat="31.93044000" lon="34.98336000">
        <ele>181.00000</ele>
        <time>2010-01-01T01:37:39Z</time>
      </trkpt>
      <trkpt lat="31.93038000" lon="34.98342000">
        <ele>181.00000</ele>
        <time>2010-01-01T01:37:42Z</time>
      </trkpt>
      <trkpt lat="31.93030000" lon="34.98361000">
        <ele>182.00000</ele>
        <time>2010-01-01T01:37:49Z</time>
      </trkpt>
      <trkpt lat="31.93020000" lon="34.98379000">
        <ele>184.00000</ele>
        <time>2010-01-01T01:37:57Z</time>
      </trkpt>
      <trkpt lat="31.93009000" lon="34.98390000">
        <ele>185.00000</ele>
        <time>2010-01-01T01:38:02Z</time>
      </trkpt>
      <trkpt lat="31.92997000" lon="34.98399000">
        <ele>186.00000</ele>
        <time>2010-01-01T01:38:08Z</time>
      </trkpt>
      <trkpt lat="31.92983000" lon="34.98404000">
        <ele>188.00000</ele>
        <time>2010-01-01T01:38:14Z</time>
      </trkpt>
      <trkpt lat="31.92965000" lon="34.98404000">
        <ele>189.00000</ele>
        <time>2010-01-01T01:38:21Z</time>
      </trkpt>
      <trkpt lat="31.92947000" lon="34.98408000">
        <ele>189.00000</ele>
        <time>2010-01-01T01:38:28Z</time>
      </trkpt>
      <trkpt lat="31.92929000" lon="34.98405000">
        <ele>188.00000</ele>
        <time>2010-01-01T01:38:36Z</time>
      </trkpt>
      <trkpt lat="31.92911000" lon="34.98407000">
        <ele>187.00000</ele>
        <time>2010-01-01T01:38:43Z</time>
      </trkpt>
      <trkpt lat="31.92908000" lon="34.98406000">
        <ele>186.00000</ele>
        <time>2010-01-01T01:38:44Z</time>
      </trkpt>
      <trkpt lat="31.92907000" lon="34.98406000">
        <ele>186.00000</ele>
        <time>2010-01-01T01:38:45Z</time>
      </trkpt>
      <trkpt lat="31.92904000" lon="34.98399000">
        <ele>186.00000</ele>
        <time>2010-01-01T01:38:47Z</time>
      </trkpt>
      <trkpt lat="31.92896000" lon="34.98353000">
        <ele>183.00000</ele>
        <time>2010-01-01T01:39:03Z</time>
      </trkpt>
      <trkpt lat="31.92889000" lon="34.98336000">
        <ele>181.00000</ele>
        <time>2010-01-01T01:39:10Z</time>
      </trkpt>
      <trkpt lat="31.92888000" lon="34.98335000">
        <ele>180.00000</ele>
        <time>2010-01-01T01:39:10Z</time>
      </trkpt>
      <trkpt lat="31.92846000" lon="34.98341000">
        <ele>176.00000</ele>
        <time>2010-01-01T01:39:27Z</time>
      </trkpt>
      <trkpt lat="31.92826000" lon="34.98350000">
        <ele>175.00000</ele>
        <time>2010-01-01T01:39:36Z</time>
      </trkpt>
      <trkpt lat="31.92804000" lon="34.98369000">
        <ele>174.00000</ele>
        <time>2010-01-01T01:39:47Z</time>
      </trkpt>
      <trkpt lat="31.92792000" lon="34.98389000">
        <ele>175.00000</ele>
        <time>2010-01-01T01:39:55Z</time>
      </trkpt>
      <trkpt lat="31.92791000" lon="34.98389000">
        <ele>175.00000</ele>
        <time>2010-01-01T01:39:55Z</time>
      </trkpt>
      <trkpt lat="31.92778000" lon="34.98367000">
        <ele>174.00000</ele>
        <time>2010-01-01T01:40:04Z</time>
      </trkpt>
      <trkpt lat="31.92775000" lon="34.98358000">
        <ele>173.00000</ele>
        <time>2010-01-01T01:40:08Z</time>
      </trkpt>
      <trkpt lat="31.92774000" lon="34.98358000">
        <ele>174.00000</ele>
        <time>2010-01-01T01:40:08Z</time>
      </trkpt>
      <trkpt lat="31.92757000" lon="34.98170000">
        <ele>172.00000</ele>
        <time>2010-01-01T01:41:12Z</time>
      </trkpt>
      <trkpt lat="31.92744000" lon="34.98103000">
        <ele>170.00000</ele>
        <time>2010-01-01T01:41:36Z</time>
      </trkpt>
      <trkpt lat="31.92737000" lon="34.98018000">
        <ele>168.00000</ele>
        <time>2010-01-01T01:42:05Z</time>
      </trkpt>
      <trkpt lat="31.92731000" lon="34.97968000">
        <ele>165.00000</ele>
        <time>2010-01-01T01:42:22Z</time>
      </trkpt>
      <trkpt lat="31.92731000" lon="34.97955000">
        <ele>165.00000</ele>
        <time>2010-01-01T01:42:26Z</time>
      </trkpt>
      <trkpt lat="31.92733000" lon="34.97942000">
        <ele>165.00000</ele>
        <time>2010-01-01T01:42:31Z</time>
      </trkpt>
      <trkpt lat="31.92748000" lon="34.97904000">
        <ele>162.00000</ele>
        <time>2010-01-01T01:42:45Z</time>
      </trkpt>
      <trkpt lat="31.92756000" lon="34.97867000">
        <ele>161.00000</ele>
        <time>2010-01-01T01:42:58Z</time>
      </trkpt>
      <trkpt lat="31.92758000" lon="34.97837000">
        <ele>162.00000</ele>
        <time>2010-01-01T01:43:08Z</time>
      </trkpt>
      <trkpt lat="31.92755000" lon="34.97794000">
        <ele>162.00000</ele>
        <time>2010-01-01T01:43:23Z</time>
      </trkpt>
      <trkpt lat="31.92749000" lon="34.97757000">
        <ele>161.00000</ele>
        <time>2010-01-01T01:43:36Z</time>
      </trkpt>
      <trkpt lat="31.92736000" lon="34.97700000">
        <ele>159.00000</ele>
        <time>2010-01-01T01:43:56Z</time>
      </trkpt>
      <trkpt lat="31.92736000" lon="34.97699000">
        <ele>159.00000</ele>
        <time>2010-01-01T01:43:56Z</time>
      </trkpt>
      <trkpt lat="31.92737000" lon="34.97700000">
        <ele>159.00000</ele>
        <time>2010-01-01T01:43:57Z</time>
      </trkpt>
      <trkpt lat="31.92735000" lon="34.97691000">
        <ele>158.00000</ele>
        <time>2010-01-01T01:44:00Z</time>
      </trkpt>
      <trkpt lat="31.92728000" lon="34.97614000">
        <ele>156.00000</ele>
        <time>2010-01-01T01:44:26Z</time>
      </trkpt>
      <trkpt lat="31.92718000" lon="34.97556000">
        <ele>154.00000</ele>
        <time>2010-01-01T01:44:46Z</time>
      </trkpt>
      <trkpt lat="31.92709000" lon="34.97523000">
        <ele>153.00000</ele>
        <time>2010-01-01T01:44:58Z</time>
      </trkpt>
      <trkpt lat="31.92682000" lon="34.97462000">
        <ele>152.00000</ele>
        <time>2010-01-01T01:45:21Z</time>
      </trkpt>
      <trkpt lat="31.92681000" lon="34.97455000">
        <ele>152.00000</ele>
        <time>2010-01-01T01:45:24Z</time>
      </trkpt>
      <trkpt lat="31.92685000" lon="34.97434000">
        <ele>152.00000</ele>
        <time>2010-01-01T01:45:31Z</time>
      </trkpt>
      <trkpt lat="31.92702000" lon="34.97383000">
        <ele>150.00000</ele>
        <time>2010-01-01T01:45:50Z</time>
      </trkpt>
      <trkpt lat="31.92705000" lon="34.97366000">
        <ele>149.00000</ele>
        <time>2010-01-01T01:45:56Z</time>
      </trkpt>
      <trkpt lat="31.92706000" lon="34.97339000">
        <ele>147.00000</ele>
        <time>2010-01-01T01:46:05Z</time>
      </trkpt>
      <trkpt lat="31.92705000" lon="34.97338000">
        <ele>147.00000</ele>
        <time>2010-01-01T01:46:05Z</time>
      </trkpt>
      <trkpt lat="31.92722000" lon="34.97296000">
        <ele>148.00000</ele>
        <time>2010-01-01T01:46:21Z</time>
      </trkpt>
      <trkpt lat="31.92751000" lon="34.97252000">
        <ele>146.00000</ele>
        <time>2010-01-01T01:46:40Z</time>
      </trkpt>
      <trkpt lat="31.92776000" lon="34.97201000">
        <ele>145.00000</ele>
        <time>2010-01-01T01:47:00Z</time>
      </trkpt>
      <trkpt lat="31.92784000" lon="34.97192000">
        <ele>144.00000</ele>
        <time>2010-01-01T01:47:04Z</time>
      </trkpt>
      <trkpt lat="31.92806000" lon="34.97177000">
        <ele>143.00000</ele>
        <time>2010-01-01T01:47:15Z</time>
      </trkpt>
      <trkpt lat="31.92806000" lon="34.97178000">
        <ele>143.00000</ele>
        <time>2010-01-01T01:47:15Z</time>
      </trkpt>
      <trkpt lat="31.92812000" lon="34.97172000">
        <ele>143.00000</ele>
        <time>2010-01-01T01:47:18Z</time>
      </trkpt>
      <trkpt lat="31.92858000" lon="34.97108000">
        <ele>143.00000</ele>
        <time>2010-01-01T01:47:47Z</time>
      </trkpt>
      <trkpt lat="31.92857000" lon="34.97108000">
        <ele>143.00000</ele>
        <time>2010-01-01T01:47:47Z</time>
      </trkpt>
      <trkpt lat="31.92887000" lon="34.97104000">
        <ele>141.00000</ele>
        <time>2010-01-01T01:47:59Z</time>
      </trkpt>
      <trkpt lat="31.92910000" lon="34.97093000">
        <ele>140.00000</ele>
        <time>2010-01-01T01:48:09Z</time>
      </trkpt>
      <trkpt lat="31.92944000" lon="34.97095000">
        <ele>141.00000</ele>
        <time>2010-01-01T01:48:23Z</time>
      </trkpt>
      <trkpt lat="31.92968000" lon="34.97103000">
        <ele>143.00000</ele>
        <time>2010-01-01T01:48:33Z</time>
      </trkpt>
      <trkpt lat="31.92982000" lon="34.97105000">
        <ele>143.00000</ele>
        <time>2010-01-01T01:48:38Z</time>
      </trkpt>
      <trkpt lat="31.93001000" lon="34.97105000">
        <ele>143.00000</ele>
        <time>2010-01-01T01:48:46Z</time>
      </trkpt>
      <trkpt lat="31.93060000" lon="34.97093000">
        <ele>139.00000</ele>
        <time>2010-01-01T01:49:10Z</time>
      </trkpt>
      <trkpt lat="31.93042550" lon="34.97015290">
        <ele>138.00000</ele>
        <time>2010-01-01T01:49:37Z</time>
      </trkpt>
      <trkpt lat="31.93031620" lon="34.96960040">
        <ele>136.00000</ele>
        <time>2010-01-01T01:49:56Z</time>
      </trkpt>
      <trkpt lat="31.93030250" lon="34.96887080">
        <ele>136.00000</ele>
        <time>2010-01-01T01:50:21Z</time>
      </trkpt>
      <trkpt lat="31.93120850" lon="34.96780870">
        <ele>134.00000</ele>
        <time>2010-01-01T01:51:12Z</time>
      </trkpt>
      <trkpt lat="31.93147710" lon="34.96735810">
        <ele>130.00000</ele>
        <time>2010-01-01T01:51:31Z</time>
      </trkpt>
      <trkpt lat="31.93177310" lon="34.96686990">
        <ele>131.00000</ele>
        <time>2010-01-01T01:51:51Z</time>
      </trkpt>
      <trkpt lat="31.93205990" lon="34.96546440">
        <ele>129.00000</ele>
        <time>2010-01-01T01:52:41Z</time>
      </trkpt>
      <trkpt lat="31.93201890" lon="34.96490120">
        <ele>129.00000</ele>
        <time>2010-01-01T01:53:00Z</time>
      </trkpt>
      <trkpt lat="31.93175940" lon="34.96412330">
        <ele>126.00000</ele>
        <time>2010-01-01T01:53:28Z</time>
      </trkpt>
      <trkpt lat="31.93159100" lon="34.96422520">
        <ele>124.00000</ele>
        <time>2010-01-01T01:53:36Z</time>
      </trkpt>
      <trkpt lat="31.93150900" lon="34.96409110">
        <ele>124.00000</ele>
        <time>2010-01-01T01:53:41Z</time>
      </trkpt>
      <trkpt lat="31.93141790" lon="34.96373710">
        <ele>127.00000</ele>
        <time>2010-01-01T01:53:54Z</time>
      </trkpt>
      <trkpt lat="31.93165010" lon="34.96312020">
        <ele>124.00000</ele>
        <time>2010-01-01T01:54:17Z</time>
      </trkpt>
      <trkpt lat="31.93230570" lon="34.96266420">
        <ele>117.00000</ele>
        <time>2010-01-01T01:54:47Z</time>
      </trkpt>
      <trkpt lat="31.93340290" lon="34.96179520">
        <ele>113.00000</ele>
        <time>2010-01-01T01:55:40Z</time>
      </trkpt>
      <trkpt lat="31.93373980" lon="34.96129090">
        <ele>116.00000</ele>
        <time>2010-01-01T01:56:02Z</time>
      </trkpt>
      <trkpt lat="31.93418590" lon="34.96016440">
        <ele>113.00000</ele>
        <time>2010-01-01T01:56:44Z</time>
      </trkpt>
      <trkpt lat="31.93462750" lon="34.95907000">
        <ele>113.00000</ele>
        <time>2010-01-01T01:57:25Z</time>
      </trkpt>
      <trkpt lat="31.93482780" lon="34.95902710">
        <ele>111.00000</ele>
        <time>2010-01-01T01:57:34Z</time>
      </trkpt>
      <trkpt lat="31.93498720" lon="34.95787380">
        <ele>109.00000</ele>
        <time>2010-01-01T01:58:13Z</time>
      </trkpt>
      <trkpt lat="31.93535140" lon="34.95709590">
        <ele>106.00000</ele>
        <time>2010-01-01T01:58:43Z</time>
      </trkpt>
      <trkpt lat="31.93549710" lon="34.95659700">
        <ele>108.00000</ele>
        <time>2010-01-01T01:59:01Z</time>
      </trkpt>
      <trkpt lat="31.93539690" lon="34.95613570">
        <ele>108.00000</ele>
        <time>2010-01-01T01:59:18Z</time>
      </trkpt>
      <trkpt lat="31.93562910" lon="34.95565290">
        <ele>109.00000</ele>
        <time>2010-01-01T01:59:36Z</time>
      </trkpt>
      <trkpt lat="31.93614810" lon="34.95506820">
        <ele>108.00000</ele>
        <time>2010-01-01T02:00:05Z</time>
      </trkpt>
      <trkpt lat="31.93710860" lon="34.95463370">
        <ele>106.00000</ele>
        <time>2010-01-01T02:00:46Z</time>
      </trkpt>
      <trkpt lat="31.93744550" lon="34.95453710">
        <ele>105.00000</ele>
        <time>2010-01-01T02:01:00Z</time>
      </trkpt>
      <trkpt lat="31.93801460" lon="34.95414550">
        <ele>105.00000</ele>
        <time>2010-01-01T02:01:27Z</time>
      </trkpt>
      <trkpt lat="31.93818750" lon="34.95393630">
        <ele>106.00000</ele>
        <time>2010-01-01T02:01:37Z</time>
      </trkpt>
      <trkpt lat="31.93835140" lon="34.95374850">
        <ele>106.00000</ele>
        <time>2010-01-01T02:01:46Z</time>
      </trkpt>
      <trkpt lat="31.93841520" lon="34.95362520">
        <ele>106.00000</ele>
        <time>2010-01-01T02:01:51Z</time>
      </trkpt>
      <trkpt lat="31.93846070" lon="34.95348030">
        <ele>105.00000</ele>
        <time>2010-01-01T02:01:56Z</time>
      </trkpt>
      <trkpt lat="31.93858360" lon="34.95288490">
        <ele>101.00000</ele>
        <time>2010-01-01T02:02:17Z</time>
      </trkpt>
      <trkpt lat="31.93863370" lon="34.95234840">
        <ele>101.00000</ele>
        <time>2010-01-01T02:02:35Z</time>
      </trkpt>
      <trkpt lat="31.93876110" lon="34.95180130">
        <ele>102.00000</ele>
        <time>2010-01-01T02:02:54Z</time>
      </trkpt>
      <trkpt lat="31.93888860" lon="34.95146330">
        <ele>102.00000</ele>
        <time>2010-01-01T02:03:07Z</time>
      </trkpt>
      <trkpt lat="31.93912990" lon="34.95078740">
        <ele>99.000000</ele>
        <time>2010-01-01T02:03:32Z</time>
      </trkpt>
      <trkpt lat="31.93912990" lon="34.94997200">
        <ele>98.000000</ele>
        <time>2010-01-01T02:03:59Z</time>
      </trkpt>
      <trkpt lat="31.93892050" lon="34.94930680">
        <ele>94.000000</ele>
        <time>2010-01-01T02:04:24Z</time>
      </trkpt>
      <trkpt lat="31.93875200" lon="34.94883470">
        <ele>96.000000</ele>
        <time>2010-01-01T02:04:41Z</time>
      </trkpt>
      <trkpt lat="31.93853810" lon="34.94792280">
        <ele>95.000000</ele>
        <time>2010-01-01T02:05:13Z</time>
      </trkpt>
      <trkpt lat="31.93847430" lon="34.94767060">
        <ele>94.000000</ele>
        <time>2010-01-01T02:05:22Z</time>
      </trkpt>
      <trkpt lat="31.93840150" lon="34.94742920">
        <ele>92.000000</ele>
        <time>2010-01-01T02:05:31Z</time>
      </trkpt>
      <trkpt lat="31.93831050" lon="34.94713960">
        <ele>90.000000</ele>
        <time>2010-01-01T02:05:41Z</time>
      </trkpt>
      <trkpt lat="31.93846070" lon="34.94698400">
        <ele>90.000000</ele>
        <time>2010-01-01T02:05:49Z</time>
      </trkpt>
      <trkpt lat="31.93854260" lon="34.94684450">
        <ele>91.000000</ele>
        <time>2010-01-01T02:05:55Z</time>
      </trkpt>
      <trkpt lat="31.93857900" lon="34.94670510">
        <ele>91.000000</ele>
        <time>2010-01-01T02:06:00Z</time>
      </trkpt>
      <trkpt lat="31.93860180" lon="34.94654410">
        <ele>91.000000</ele>
        <time>2010-01-01T02:06:05Z</time>
      </trkpt>
      <trkpt lat="31.93861090" lon="34.94647440">
        <ele>91.000000</ele>
        <time>2010-01-01T02:06:08Z</time>
      </trkpt>
      <trkpt lat="31.93864280" lon="34.94626520">
        <ele>91.000000</ele>
        <time>2010-01-01T02:06:15Z</time>
      </trkpt>
      <trkpt lat="31.93933020" lon="34.94538000">
        <ele>96.000000</ele>
        <time>2010-01-01T02:06:56Z</time>
      </trkpt>
      <trkpt lat="31.93935290" lon="34.94458070">
        <ele>96.000000</ele>
        <time>2010-01-01T02:07:23Z</time>
      </trkpt>
      <trkpt lat="31.93929830" lon="34.94356150">
        <ele>95.000000</ele>
        <time>2010-01-01T02:07:58Z</time>
      </trkpt>
      <trkpt lat="31.93922550" lon="34.94268170">
        <ele>94.000000</ele>
        <time>2010-01-01T02:08:28Z</time>
      </trkpt>
      <trkpt lat="31.93932560" lon="34.94161960">
        <ele>90.000000</ele>
        <time>2010-01-01T02:09:04Z</time>
      </trkpt>
      <trkpt lat="31.93954410" lon="34.94155520">
        <ele>91.000000</ele>
        <time>2010-01-01T02:09:13Z</time>
      </trkpt>
      <trkpt lat="31.93973530" lon="34.94160890">
        <ele>92.000000</ele>
        <time>2010-01-01T02:09:21Z</time>
      </trkpt>
      <trkpt lat="31.94018140" lon="34.94198440">
        <ele>101.00000</ele>
        <time>2010-01-01T02:09:43Z</time>
      </trkpt>
      <trkpt lat="31.94075500" lon="34.94212380">
        <ele>104.00000</ele>
        <time>2010-01-01T02:10:06Z</time>
      </trkpt>
      <trkpt lat="31.94175650" lon="34.94189850">
        <ele>102.00000</ele>
        <time>2010-01-01T02:10:47Z</time>
      </trkpt>
      <trkpt lat="31.94185670" lon="34.94158740">
        <ele>95.000000</ele>
        <time>2010-01-01T02:10:58Z</time>
      </trkpt>
      <trkpt lat="31.94192040" lon="34.94154450">
        <ele>95.000000</ele>
        <time>2010-01-01T02:11:01Z</time>
      </trkpt>
      <trkpt lat="31.94225720" lon="34.94151230">
        <ele>95.000000</ele>
        <time>2010-01-01T02:11:15Z</time>
      </trkpt>
      <trkpt lat="31.94247580" lon="34.94158740">
        <ele>97.000000</ele>
        <time>2010-01-01T02:11:24Z</time>
      </trkpt>
      <trkpt lat="31.94313130" lon="34.94168400">
        <ele>100.00000</ele>
        <time>2010-01-01T02:11:50Z</time>
      </trkpt>
      <trkpt lat="31.94334980" lon="34.94171610">
        <ele>100.00000</ele>
        <time>2010-01-01T02:11:59Z</time>
      </trkpt>
      <trkpt lat="31.94341350" lon="34.94112610">
        <ele>97.000000</ele>
        <time>2010-01-01T02:12:19Z</time>
      </trkpt>
      <trkpt lat="31.94337710" lon="34.94089000">
        <ele>99.000000</ele>
        <time>2010-01-01T02:12:28Z</time>
      </trkpt>
      <trkpt lat="31.94351360" lon="34.94031070">
        <ele>107.00000</ele>
        <time>2010-01-01T02:12:48Z</time>
      </trkpt>
      <trkpt lat="31.94380500" lon="34.93972060">
        <ele>118.00000</ele>
        <time>2010-01-01T02:13:11Z</time>
      </trkpt>
      <trkpt lat="31.94407810" lon="34.93950600">
        <ele>123.00000</ele>
        <time>2010-01-01T02:13:24Z</time>
      </trkpt>
      <trkpt lat="31.94411450" lon="34.93932360">
        <ele>125.00000</ele>
        <time>2010-01-01T02:13:31Z</time>
      </trkpt>
      <trkpt lat="31.94400530" lon="34.93925920">
        <ele>125.00000</ele>
        <time>2010-01-01T02:13:36Z</time>
      </trkpt>
      <trkpt lat="31.94396880" lon="34.93912510">
        <ele>126.00000</ele>
        <time>2010-01-01T02:13:40Z</time>
      </trkpt>
      <trkpt lat="31.94404170" lon="34.93882470">
        <ele>126.00000</ele>
        <time>2010-01-01T02:13:51Z</time>
      </trkpt>
      <trkpt lat="31.94409630" lon="34.93860480">
        <ele>125.00000</ele>
        <time>2010-01-01T02:13:59Z</time>
      </trkpt>
      <trkpt lat="31.94420100" lon="34.93854580">
        <ele>125.00000</ele>
        <time>2010-01-01T02:14:03Z</time>
      </trkpt>
      <trkpt lat="31.94432850" lon="34.93841700">
        <ele>123.00000</ele>
        <time>2010-01-01T02:14:10Z</time>
      </trkpt>
      <trkpt lat="31.94438310" lon="34.93833660">
        <ele>123.00000</ele>
        <time>2010-01-01T02:14:14Z</time>
      </trkpt>
      <trkpt lat="31.94443770" lon="34.93823460">
        <ele>121.00000</ele>
        <time>2010-01-01T02:14:18Z</time>
      </trkpt>
      <trkpt lat="31.94467900" lon="34.93791280">
        <ele>116.00000</ele>
        <time>2010-01-01T02:14:32Z</time>
      </trkpt>
      <trkpt lat="31.94482010" lon="34.93785380">
        <ele>116.00000</ele>
        <time>2010-01-01T02:14:38Z</time>
      </trkpt>
      <trkpt lat="31.94521610" lon="34.93785380">
        <ele>119.00000</ele>
        <time>2010-01-01T02:14:54Z</time>
      </trkpt>
      <trkpt lat="31.94538000" lon="34.93790200">
        <ele>120.00000</ele>
        <time>2010-01-01T02:15:01Z</time>
      </trkpt>
      <trkpt lat="31.94556660" lon="34.93810590">
        <ele>124.00000</ele>
        <time>2010-01-01T02:15:11Z</time>
      </trkpt>
      <trkpt lat="31.94586700" lon="34.93834730">
        <ele>123.00000</ele>
        <time>2010-01-01T02:15:26Z</time>
      </trkpt>
      <trkpt lat="31.94609010" lon="34.93843310">
        <ele>122.00000</ele>
        <time>2010-01-01T02:15:35Z</time>
      </trkpt>
      <trkpt lat="31.94624940" lon="34.93855110">
        <ele>124.00000</ele>
        <time>2010-01-01T02:15:43Z</time>
      </trkpt>
      <trkpt lat="31.94634040" lon="34.93859940">
        <ele>125.00000</ele>
        <time>2010-01-01T02:15:47Z</time>
      </trkpt>
      <trkpt lat="31.94652250" lon="34.93863700">
        <ele>126.00000</ele>
        <time>2010-01-01T02:15:54Z</time>
      </trkpt>
      <trkpt lat="31.94673190" lon="34.93849210">
        <ele>125.00000</ele>
        <time>2010-01-01T02:16:04Z</time>
      </trkpt>
      <trkpt lat="31.94677740" lon="34.93840090">
        <ele>125.00000</ele>
        <time>2010-01-01T02:16:07Z</time>
      </trkpt>
      <trkpt lat="31.94679110" lon="34.93827760">
        <ele>124.00000</ele>
        <time>2010-01-01T02:16:12Z</time>
      </trkpt>
      <trkpt lat="31.94690490" lon="34.93799320">
        <ele>123.00000</ele>
        <time>2010-01-01T02:16:22Z</time>
      </trkpt>
      <trkpt lat="31.94704600" lon="34.93781620">
        <ele>122.00000</ele>
        <time>2010-01-01T02:16:31Z</time>
      </trkpt>
      <trkpt lat="31.94722350" lon="34.93764990">
        <ele>120.00000</ele>
        <time>2010-01-01T02:16:40Z</time>
      </trkpt>
      <trkpt lat="31.94737370" lon="34.93761240">
        <ele>120.00000</ele>
        <time>2010-01-01T02:16:46Z</time>
      </trkpt>
      <trkpt lat="31.94755120" lon="34.93762850">
        <ele>122.00000</ele>
        <time>2010-01-01T02:16:53Z</time>
      </trkpt>
      <trkpt lat="31.94769240" lon="34.93763380">
        <ele>121.00000</ele>
        <time>2010-01-01T02:16:59Z</time>
      </trkpt>
      <trkpt lat="31.94790630" lon="34.93772500">
        <ele>122.00000</ele>
        <time>2010-01-01T02:17:08Z</time>
      </trkpt>
      <trkpt lat="31.94807930" lon="34.93777330">
        <ele>123.00000</ele>
        <time>2010-01-01T02:17:15Z</time>
      </trkpt>
      <trkpt lat="31.94830230" lon="34.93789130">
        <ele>125.00000</ele>
        <time>2010-01-01T02:17:25Z</time>
      </trkpt>
      <trkpt lat="31.94843430" lon="34.93798790">
        <ele>125.00000</ele>
        <time>2010-01-01T02:17:31Z</time>
      </trkpt>
      <trkpt lat="31.94861640" lon="34.93811660">
        <ele>124.00000</ele>
        <time>2010-01-01T02:17:39Z</time>
      </trkpt>
      <trkpt lat="31.94876200" lon="34.93822930">
        <ele>123.00000</ele>
        <time>2010-01-01T02:17:46Z</time>
      </trkpt>
      <trkpt lat="31.94891680" lon="34.93838480">
        <ele>122.00000</ele>
        <time>2010-01-01T02:17:54Z</time>
      </trkpt>
      <trkpt lat="31.94899420" lon="34.93846530">
        <ele>122.00000</ele>
        <time>2010-01-01T02:17:58Z</time>
      </trkpt>
      <trkpt lat="31.94902600" lon="34.93852430">
        <ele>122.00000</ele>
        <time>2010-01-01T02:18:01Z</time>
      </trkpt>
      <trkpt lat="31.94905790" lon="34.93863160">
        <ele>121.00000</ele>
        <time>2010-01-01T02:18:05Z</time>
      </trkpt>
      <trkpt lat="31.94904880" lon="34.93884080">
        <ele>121.00000</ele>
        <time>2010-01-01T02:18:12Z</time>
      </trkpt>
      <trkpt lat="31.94893050" lon="34.93916800">
        <ele>122.00000</ele>
        <time>2010-01-01T02:18:24Z</time>
      </trkpt>
      <trkpt lat="31.94880760" lon="34.93952210">
        <ele>123.00000</ele>
        <time>2010-01-01T02:18:37Z</time>
      </trkpt>
      <trkpt lat="31.94869380" lon="34.94000490">
        <ele>124.00000</ele>
        <time>2010-01-01T02:18:54Z</time>
      </trkpt>
      <trkpt lat="31.94859360" lon="34.94029460">
        <ele>121.00000</ele>
        <time>2010-01-01T02:19:05Z</time>
      </trkpt>
      <trkpt lat="31.94843430" lon="34.94119040">
        <ele>124.00000</ele>
        <time>2010-01-01T02:19:36Z</time>
      </trkpt>
      <trkpt lat="31.94842980" lon="34.94138360">
        <ele>126.00000</ele>
        <time>2010-01-01T02:19:42Z</time>
      </trkpt>
      <trkpt lat="31.94829320" lon="34.94163030">
        <ele>127.00000</ele>
        <time>2010-01-01T02:19:52Z</time>
      </trkpt>
      <trkpt lat="31.94824770" lon="34.94228480">
        <ele>123.00000</ele>
        <time>2010-01-01T02:20:15Z</time>
      </trkpt>
      <trkpt lat="31.94847980" lon="34.94266560">
        <ele>118.00000</ele>
        <time>2010-01-01T02:20:30Z</time>
      </trkpt>
      <trkpt lat="31.94855270" lon="34.94288560">
        <ele>116.00000</ele>
        <time>2010-01-01T02:20:38Z</time>
      </trkpt>
      <trkpt lat="31.94861180" lon="34.94317530">
        <ele>113.00000</ele>
        <time>2010-01-01T02:20:49Z</time>
      </trkpt>
      <trkpt lat="31.94817940" lon="34.94378140">
        <ele>113.00000</ele>
        <time>2010-01-01T02:21:15Z</time>
      </trkpt>
      <trkpt lat="31.94825680" lon="34.94412480">
        <ele>112.00000</ele>
        <time>2010-01-01T02:21:28Z</time>
      </trkpt>
      <trkpt lat="31.94826590" lon="34.94423210">
        <ele>112.00000</ele>
        <time>2010-01-01T02:21:31Z</time>
      </trkpt>
      <trkpt lat="31.94823400" lon="34.94487040">
        <ele>120.00000</ele>
        <time>2010-01-01T02:21:53Z</time>
      </trkpt>
      <trkpt lat="31.94810660" lon="34.94546050">
        <ele>122.00000</ele>
        <time>2010-01-01T02:22:14Z</time>
      </trkpt>
      <trkpt lat="31.94804280" lon="34.94573950">
        <ele>120.00000</ele>
        <time>2010-01-01T02:22:23Z</time>
      </trkpt>
      <trkpt lat="31.94796550" lon="34.94599160">
        <ele>122.00000</ele>
        <time>2010-01-01T02:22:33Z</time>
      </trkpt>
      <trkpt lat="31.94790170" lon="34.94631350">
        <ele>123.00000</ele>
        <time>2010-01-01T02:22:44Z</time>
      </trkpt>
      <trkpt lat="31.94783350" lon="34.94654410">
        <ele>123.00000</ele>
        <time>2010-01-01T02:22:52Z</time>
      </trkpt>
      <trkpt lat="31.94779250" lon="34.94665680">
        <ele>123.00000</ele>
        <time>2010-01-01T02:22:56Z</time>
      </trkpt>
      <trkpt lat="31.94769690" lon="34.94676940">
        <ele>123.00000</ele>
        <time>2010-01-01T02:23:02Z</time>
      </trkpt>
      <trkpt lat="31.94760590" lon="34.94683380">
        <ele>125.00000</ele>
        <time>2010-01-01T02:23:06Z</time>
      </trkpt>
      <trkpt lat="31.94754670" lon="34.94691960">
        <ele>125.00000</ele>
        <time>2010-01-01T02:23:10Z</time>
      </trkpt>
      <trkpt lat="31.94734190" lon="34.94703760">
        <ele>128.00000</ele>
        <time>2010-01-01T02:23:19Z</time>
      </trkpt>
      <trkpt lat="31.94710060" lon="34.94719860">
        <ele>131.00000</ele>
        <time>2010-01-01T02:23:30Z</time>
      </trkpt>
      <trkpt lat="31.94695490" lon="34.94732200">
        <ele>133.00000</ele>
        <time>2010-01-01T02:23:37Z</time>
      </trkpt>
      <trkpt lat="31.94657260" lon="34.94750440">
        <ele>134.00000</ele>
        <time>2010-01-01T02:23:54Z</time>
      </trkpt>
      <trkpt lat="31.94616750" lon="34.94752040">
        <ele>137.00000</ele>
        <time>2010-01-01T02:24:10Z</time>
      </trkpt>
      <trkpt lat="31.94593990" lon="34.94742390">
        <ele>138.00000</ele>
        <time>2010-01-01T02:24:19Z</time>
      </trkpt>
      <trkpt lat="31.94573960" lon="34.94739170">
        <ele>138.00000</ele>
        <time>2010-01-01T02:24:28Z</time>
      </trkpt>
      <trkpt lat="31.94533440" lon="34.94741850">
        <ele>138.00000</ele>
        <time>2010-01-01T02:24:44Z</time>
      </trkpt>
      <trkpt lat="31.94493840" lon="34.94726300">
        <ele>137.00000</ele>
        <time>2010-01-01T02:25:01Z</time>
      </trkpt>
      <trkpt lat="31.94473810" lon="34.94719320">
        <ele>135.00000</ele>
        <time>2010-01-01T02:25:09Z</time>
      </trkpt>
      <trkpt lat="31.94442400" lon="34.94714490">
        <ele>134.00000</ele>
        <time>2010-01-01T02:25:22Z</time>
      </trkpt>
      <trkpt lat="31.94416460" lon="34.94714490">
        <ele>132.00000</ele>
        <time>2010-01-01T02:25:32Z</time>
      </trkpt>
      <trkpt lat="31.94404620" lon="34.94716100">
        <ele>131.00000</ele>
        <time>2010-01-01T02:25:37Z</time>
      </trkpt>
      <trkpt lat="31.94384140" lon="34.94724690">
        <ele>130.00000</ele>
        <time>2010-01-01T02:25:45Z</time>
      </trkpt>
      <trkpt lat="31.94365470" lon="34.94737560">
        <ele>129.00000</ele>
        <time>2010-01-01T02:25:54Z</time>
      </trkpt>
      <trkpt lat="31.94348630" lon="34.94756340">
        <ele>127.00000</ele>
        <time>2010-01-01T02:26:03Z</time>
      </trkpt>
      <trkpt lat="31.94318590" lon="34.94770820">
        <ele>125.00000</ele>
        <time>2010-01-01T02:26:16Z</time>
      </trkpt>
      <trkpt lat="31.94299010" lon="34.94777260">
        <ele>124.00000</ele>
        <time>2010-01-01T02:26:24Z</time>
      </trkpt>
      <trkpt lat="31.94274890" lon="34.94787990">
        <ele>123.00000</ele>
        <time>2010-01-01T02:26:35Z</time>
      </trkpt>
      <trkpt lat="31.94255770" lon="34.94799790">
        <ele>121.00000</ele>
        <time>2010-01-01T02:26:43Z</time>
      </trkpt>
      <trkpt lat="31.94229370" lon="34.94821250">
        <ele>118.00000</ele>
        <time>2010-01-01T02:26:56Z</time>
      </trkpt>
      <trkpt lat="31.94166550" lon="34.94906000">
        <ele>102.00000</ele>
        <time>2010-01-01T02:27:35Z</time>
      </trkpt>
      <trkpt lat="31.94189310" lon="34.94946240">
        <ele>103.00000</ele>
        <time>2010-01-01T02:27:51Z</time>
      </trkpt>
      <trkpt lat="31.94254860" lon="34.95024020">
        <ele>104.00000</ele>
        <time>2010-01-01T02:28:28Z</time>
      </trkpt>
      <trkpt lat="31.94302200" lon="34.95059430">
        <ele>106.00000</ele>
        <time>2010-01-01T02:28:51Z</time>
      </trkpt>
      <trkpt lat="31.94356830" lon="34.95078740">
        <ele>111.00000</ele>
        <time>2010-01-01T02:29:13Z</time>
      </trkpt>
      <trkpt lat="31.94455610" lon="34.95073910">
        <ele>115.00000</ele>
        <time>2010-01-01T02:29:53Z</time>
      </trkpt>
      <trkpt lat="31.94517970" lon="34.95105020">
        <ele>120.00000</ele>
        <time>2010-01-01T02:30:20Z</time>
      </trkpt>
      <trkpt lat="31.94626310" lon="34.95137750">
        <ele>127.00000</ele>
        <time>2010-01-01T02:31:05Z</time>
      </trkpt>
      <trkpt lat="31.94613560" lon="34.95182810">
        <ele>127.00000</ele>
        <time>2010-01-01T02:31:21Z</time>
      </trkpt>
      <trkpt lat="31.94603550" lon="34.95227330">
        <ele>130.00000</ele>
        <time>2010-01-01T02:31:37Z</time>
      </trkpt>
      <trkpt lat="31.94599900" lon="34.95253080">
        <ele>133.00000</ele>
        <time>2010-01-01T02:31:46Z</time>
      </trkpt>
      <trkpt lat="31.94603090" lon="34.95297610">
        <ele>139.00000</ele>
        <time>2010-01-01T02:32:01Z</time>
      </trkpt>
      <trkpt lat="31.94598990" lon="34.95314240">
        <ele>141.00000</ele>
        <time>2010-01-01T02:32:07Z</time>
      </trkpt>
      <trkpt lat="31.94591710" lon="34.95322280">
        <ele>141.00000</ele>
        <time>2010-01-01T02:32:11Z</time>
      </trkpt>
      <trkpt lat="31.94568040" lon="34.95333010">
        <ele>140.00000</ele>
        <time>2010-01-01T02:32:21Z</time>
      </trkpt>
      <trkpt lat="31.94560300" lon="34.95341060">
        <ele>140.00000</ele>
        <time>2010-01-01T02:32:25Z</time>
      </trkpt>
      <trkpt lat="31.94555290" lon="34.95357690">
        <ele>139.00000</ele>
        <time>2010-01-01T02:32:31Z</time>
      </trkpt>
      <trkpt lat="31.94558030" lon="34.95377000">
        <ele>140.00000</ele>
        <time>2010-01-01T02:32:38Z</time>
      </trkpt>
      <trkpt lat="31.94571230" lon="34.95414550">
        <ele>142.00000</ele>
        <time>2010-01-01T02:32:51Z</time>
      </trkpt>
      <trkpt lat="31.94589430" lon="34.95480530">
        <ele>146.00000</ele>
        <time>2010-01-01T02:33:15Z</time>
      </trkpt>
      <trkpt lat="31.94598080" lon="34.95514330">
        <ele>148.00000</ele>
        <time>2010-01-01T02:33:27Z</time>
      </trkpt>
      <trkpt lat="31.94612190" lon="34.95541690">
        <ele>152.00000</ele>
        <time>2010-01-01T02:33:38Z</time>
      </trkpt>
      <trkpt lat="31.94651800" lon="34.95563140">
        <ele>156.00000</ele>
        <time>2010-01-01T02:33:55Z</time>
      </trkpt>
      <trkpt lat="31.94675470" lon="34.95571190">
        <ele>158.00000</ele>
        <time>2010-01-01T02:34:05Z</time>
      </trkpt>
      <trkpt lat="31.94683660" lon="34.95675260">
        <ele>160.00000</ele>
        <time>2010-01-01T02:34:41Z</time>
      </trkpt>
      <trkpt lat="31.94659530" lon="34.95775040">
        <ele>155.00000</ele>
        <time>2010-01-01T02:35:16Z</time>
      </trkpt>
      <trkpt lat="31.94669090" lon="34.95815270">
        <ele>154.00000</ele>
        <time>2010-01-01T02:35:30Z</time>
      </trkpt>
      <trkpt lat="31.94714610" lon="34.95850140">
        <ele>156.00000</ele>
        <time>2010-01-01T02:35:52Z</time>
      </trkpt>
      <trkpt lat="31.94747390" lon="34.95876430">
        <ele>157.00000</ele>
        <time>2010-01-01T02:36:08Z</time>
      </trkpt>
      <trkpt lat="31.94766050" lon="34.95908080">
        <ele>156.00000</ele>
        <time>2010-01-01T02:36:21Z</time>
      </trkpt>
      <trkpt lat="31.94770600" lon="34.95931680">
        <ele>156.00000</ele>
        <time>2010-01-01T02:36:29Z</time>
      </trkpt>
      <trkpt lat="31.94782890" lon="34.95924710">
        <ele>157.00000</ele>
        <time>2010-01-01T02:36:34Z</time>
      </trkpt>
      <trkpt lat="31.94798370" lon="34.95922020">
        <ele>159.00000</ele>
        <time>2010-01-01T02:36:41Z</time>
      </trkpt>
      <trkpt lat="31.94811570" lon="34.95928460">
        <ele>159.00000</ele>
        <time>2010-01-01T02:36:46Z</time>
      </trkpt>
      <trkpt lat="31.94822490" lon="34.95926320">
        <ele>160.00000</ele>
        <time>2010-01-01T02:36:51Z</time>
      </trkpt>
      <trkpt lat="31.94830690" lon="34.95922560">
        <ele>161.00000</ele>
        <time>2010-01-01T02:36:54Z</time>
      </trkpt>
      <trkpt lat="31.94842980" lon="34.95918270">
        <ele>161.00000</ele>
        <time>2010-01-01T02:36:59Z</time>
      </trkpt>
      <trkpt lat="31.94878930" lon="34.95888230">
        <ele>166.00000</ele>
        <time>2010-01-01T02:37:17Z</time>
      </trkpt>
      <trkpt lat="31.94911710" lon="34.95876430">
        <ele>167.00000</ele>
        <time>2010-01-01T02:37:31Z</time>
      </trkpt>
      <trkpt lat="31.94959500" lon="34.95838880">
        <ele>169.00000</ele>
        <time>2010-01-01T02:37:54Z</time>
      </trkpt>
      <trkpt lat="31.94990000" lon="34.95828150">
        <ele>170.00000</ele>
        <time>2010-01-01T02:38:07Z</time>
      </trkpt>
      <trkpt lat="31.95039610" lon="34.95812050">
        <ele>171.00000</ele>
        <time>2010-01-01T02:38:27Z</time>
      </trkpt>
      <trkpt lat="31.95048260" lon="34.95777180">
        <ele>172.00000</ele>
        <time>2010-01-01T02:38:40Z</time>
      </trkpt>
      <trkpt lat="31.95055540" lon="34.95759480">
        <ele>172.00000</ele>
        <time>2010-01-01T02:38:46Z</time>
      </trkpt>
    </trkseg>
  </trk>
</gpx>

